Observation data for Dell City 1N on 01/20/2019      Previous  Date  Next       Current Mesonet Observations  Soil Data  Daily Summary Page  Observations in Plain Language
KDC1 200600Z 32006KT 01/M07 A3034 RMK A01 T00141072  RH  053%=      5-min Rain = 0
KDC1 200601Z 32006KT 02/M07 A3034 RMK A01 T00151073  RH  052%=      5-min Rain = 0
KDC1 200602Z 30005KT 02/M07 A3034 RMK A01 T00171073  RH  051%=      5-min Rain = 0
KDC1 200603Z 30005KT 02/M07 A3034 RMK A01 T00161074  RH  051%=      5-min Rain = 0
KDC1 200604Z 30004KT 02/M07 A3034 RMK A01 T00151074  RH  051%=      5-min Rain = 0
KDC1 200605Z 31005KT 02/M08 A3034 RMK A01 T00151075  RH  051%=      5-min Rain = 0
KDC1 200606Z 31005KT 02/M08 A3034 RMK A01 T00161076  RH  051%=      5-min Rain = 0
KDC1 200607Z 32005KT 02/M08 A3034 RMK A01 T00171075  RH  050%=      5-min Rain = 0
KDC1 200608Z 33006KT 02/M08 A3034 RMK A01 T00171075  RH  050%=      5-min Rain = 0
KDC1 200609Z 34006KT 02/M08 A3034 RMK A01 T00171075  RH  051%=      5-min Rain = 0
KDC1 200610Z 34007KT 02/M07 A3034 RMK A01 T00161073  RH  051%=      5-min Rain = 0
KDC1 200611Z 35007KT 02/M07 A3034 RMK A01 T00151072  RH  052%=      5-min Rain = 0
KDC1 200612Z 35007KT 01/M07 A3034 RMK A01 T00131071  RH  054%=      5-min Rain = 0
KDC1 200613Z 35007KT 01/M07 A3034 RMK A01 T00131070  RH  054%=      5-min Rain = 0
KDC1 200614Z 35007KT 02/M07 A3034 RMK A01 T00151071  RH  053%=      5-min Rain = 0
KDC1 200615Z 35006KT 02/M07 A3034 RMK A01 T00191072  RH  051%=      5-min Rain = 0
KDC1 200616Z 35005KT 02/M07 A3034 RMK A01 T00221073  RH  049%=      5-min Rain = 0
KDC1 200617Z 35005KT 02/M07 A3034 RMK A01 T00241073  RH  049%=      5-min Rain = 0
KDC1 200618Z 35005KT 03/M07 A3034 RMK A01 T00261073  RH  048%=      5-min Rain = 0
KDC1 200619Z 36004KT 03/M07 A3034 RMK A01 T00271072  RH  048%=      5-min Rain = 0
KDC1 200620Z 00004KT 03/M07 A3034 RMK A01 T00271071  RH  048%=      5-min Rain = 0
KDC1 200621Z 36004KT 03/M07 A3034 RMK A01 T00271070  RH  049%=      5-min Rain = 0
KDC1 200622Z 35004KT 03/M07 A3033 RMK A01 T00251071  RH  049%=      5-min Rain = 0
KDC1 200623Z 35005KT 03/M07 A3033 RMK A01 T00251071  RH  049%=      5-min Rain = 0
KDC1 200624Z 36005KT 02/M07 A3033 RMK A01 T00241072  RH  049%=      5-min Rain = 0
KDC1 200625Z 36005KT 03/M07 A3033 RMK A01 T00251073  RH  048%=      5-min Rain = 0
KDC1 200626Z 35005KT 03/M07 A3033 RMK A01 T00281074  RH  047%=      5-min Rain = 0
KDC1 200627Z 35005KT 03/M07 A3033 RMK A01 T00281072  RH  048%=      5-min Rain = 0
KDC1 200628Z 35004KT 03/M07 A3033 RMK A01 T00281071  RH  048%=      5-min Rain = 0
KDC1 200629Z 36005KT 03/M07 A3033 RMK A01 T00261069  RH  050%=      5-min Rain = 0
KDC1 200630Z 35004KT 02/M07 A3033 RMK A01 T00231068  RH  051%=      5-min Rain = 0
KDC1 200631Z 34004KT 02/M07 A3033 RMK A01 T00211068  RH  052%=      5-min Rain = 0
KDC1 200632Z 33003KT 02/M07 A3033 RMK A01 T00201069  RH  052%=      5-min Rain = 0
KDC1 200633Z 34003KT 02/M07 A3033 RMK A01 T00201070  RH  051%=      5-min Rain = 0
KDC1 200634Z 34004KT 02/M07 A3033 RMK A01 T00241073  RH  049%=      5-min Rain = 0
KDC1 200635Z 34004KT 03/M07 A3033 RMK A01 T00301073  RH  047%=      5-min Rain = 0
KDC1 200636Z 33004KT 03/M07 A3033 RMK A01 T00331074  RH  045%=      5-min Rain = 0
KDC1 200637Z 32004KT 03/M07 A3033 RMK A01 T00321073  RH  046%=      5-min Rain = 0
KDC1 200638Z 33005KT 03/M07 A3033 RMK A01 T00281071  RH  048%=      5-min Rain = 0
KDC1 200639Z 32005KT 03/M07 A3033 RMK A01 T00251071  RH  049%=      5-min Rain = 0
KDC1 200640Z 31004KT 02/M07 A3033 RMK A01 T00211070  RH  051%=      5-min Rain = 0
KDC1 200641Z 32004KT 02/M07 A3033 RMK A01 T00181069  RH  052%=      5-min Rain = 0
KDC1 200642Z 32003KT 02/M07 A3033 RMK A01 T00161069  RH  053%=      5-min Rain = 0
KDC1 200643Z 28003KT 02/M07 A3033 RMK A01 T00161069  RH  053%=      5-min Rain = 0
KDC1 200644Z 28002KT 02/M07 A3033 RMK A01 T00161069  RH  053%=      5-min Rain = 0
KDC1 200645Z 20000KT 02/M07 A3033 RMK A01 T00161066  RH  055%=      5-min Rain = 0
KDC1 200646Z 33001KT 02/M07 A3033 RMK A01 T00151065  RH  055%=      5-min Rain = 0
KDC1 200647Z 32001KT 02/M07 A3033 RMK A01 T00151071  RH  053%=      5-min Rain = 0
KDC1 200648Z 30002KT 02/M07 A3034 RMK A01 T00171072  RH  052%=      5-min Rain = 0
KDC1 200649Z 30003KT 02/M07 A3034 RMK A01 T00181070  RH  052%=      5-min Rain = 0
KDC1 200650Z 28003KT 02/M07 A3034 RMK A01 T00191071  RH  051%=      5-min Rain = 0
KDC1 200651Z 29005KT 02/M07 A3034 RMK A01 T00191071  RH  051%=      5-min Rain = 0
KDC1 200652Z 30004KT 02/M07 A3033 RMK A01 T00181071  RH  052%=      5-min Rain = 0
KDC1 200653Z 29004KT 02/M07 A3033 RMK A01 T00181071  RH  052%=      5-min Rain = 0
KDC1 200654Z 29004KT 02/M07 A3034 RMK A01 T00181071  RH  052%=      5-min Rain = 0
KDC1 200655Z 30004KT 02/M07 A3034 RMK A01 T00181071  RH  051%=      5-min Rain = 0
KDC1 200656Z 29003KT 02/M07 A3034 RMK A01 T00191073  RH  051%=      5-min Rain = 0
KDC1 200657Z 27004KT 02/M07 A3034 RMK A01 T00201072  RH  050%=      5-min Rain = 0
KDC1 200658Z 26003KT 02/M07 A3034 RMK A01 T00201071  RH  051%=      5-min Rain = 0
KDC1 200659Z 24004KT 02/M07 A3034 RMK A01 T00191069  RH  052%=      5-min Rain = 0
KDC1 200700Z 25004KT 02/M07 A3034 RMK A01 T00181067  RH  054%=      5-min Rain = 0
KDC1 200701Z 25004KT 02/M07 A3034 RMK A01 T00171068  RH  053%=      5-min Rain = 0
KDC1 200702Z 25004KT 02/M07 A3034 RMK A01 T00181070  RH  052%=      5-min Rain = 0
KDC1 200703Z 26002KT 02/M07 A3033 RMK A01 T00191070  RH  052%=      5-min Rain = 0
KDC1 200704Z 27002KT 02/M07 A3033 RMK A01 T00191071  RH  051%=      5-min Rain = 0
KDC1 200705Z 26003KT 02/M07 A3034 RMK A01 T00191071  RH  051%=      5-min Rain = 0
KDC1 200706Z 26003KT 02/M07 A3034 RMK A01 T00191072  RH  051%=      5-min Rain = 0
KDC1 200707Z 26003KT 02/M07 A3034 RMK A01 T00201072  RH  051%=      5-min Rain = 0
KDC1 200708Z 24002KT 02/M07 A3034 RMK A01 T00201071  RH  051%=      5-min Rain = 0
KDC1 200709Z 24002KT 02/M07 A3034 RMK A01 T00191071  RH  051%=      5-min Rain = 0
KDC1 200710Z 24002KT 02/M07 A3034 RMK A01 T00191071  RH  051%=      5-min Rain = 0
KDC1 200711Z 26002KT 02/M07 A3034 RMK A01 T00181069  RH  053%=      5-min Rain = 0
KDC1 200712Z 26003KT 02/M07 A3034 RMK A01 T00181069  RH  053%=      5-min Rain = 0
KDC1 200713Z 26003KT 02/M07 A3034 RMK A01 T00181072  RH  051%=      5-min Rain = 0
KDC1 200714Z 26003KT 02/M07 A3034 RMK A01 T00181073  RH  051%=      5-min Rain = 0
KDC1 200715Z 27003KT 02/M07 A3034 RMK A01 T00181073  RH  051%=      5-min Rain = 0
KDC1 200716Z 27003KT 02/M07 A3034 RMK A01 T00181073  RH  051%=      5-min Rain = 0
KDC1 200717Z 26004KT 02/M07 A3034 RMK A01 T00181072  RH  051%=      5-min Rain = 0
KDC1 200718Z 26004KT 02/M07 A3034 RMK A01 T00181072  RH  052%=      5-min Rain = 0
KDC1 200719Z 27005KT 02/M07 A3034 RMK A01 T00171071  RH  052%=      5-min Rain = 0
KDC1 200720Z 27005KT 02/M07 A3033 RMK A01 T00161071  RH  052%=      5-min Rain = 0
KDC1 200721Z 27005KT 02/M07 A3033 RMK A01 T00151071  RH  053%=      5-min Rain = 0
KDC1 200722Z 27005KT 01/M07 A3033 RMK A01 T00141069  RH  054%=      5-min Rain = 0
KDC1 200723Z 27005KT 01/M07 A3033 RMK A01 T00131069  RH  055%=      5-min Rain = 0
KDC1 200724Z 27005KT 01/M07 A3033 RMK A01 T00121069  RH  055%=      5-min Rain = 0
KDC1 200725Z 27006KT 01/M07 A3034 RMK A01 T00121069  RH  055%=      5-min Rain = 0
KDC1 200726Z 27006KT 01/M07 A3034 RMK A01 T00121069  RH  055%=      5-min Rain = 0
KDC1 200727Z 27006KT 01/M07 A3034 RMK A01 T00121070  RH  054%=      5-min Rain = 0
KDC1 200728Z 27005KT 01/M07 A3034 RMK A01 T00111071  RH  054%=      5-min Rain = 0
KDC1 200729Z 26005KT 01/M07 A3034 RMK A01 T00111072  RH  054%=      5-min Rain = 0
KDC1 200730Z 26005KT 01/M07 A3034 RMK A01 T00111073  RH  054%=      5-min Rain = 0
KDC1 200731Z 26005KT 01/M07 A3034 RMK A01 T00101073  RH  054%=      5-min Rain = 0
KDC1 200732Z 26004KT 01/M07 A3034 RMK A01 T00101074  RH  054%=      5-min Rain = 0
KDC1 200733Z 27005KT 01/M08 A3034 RMK A01 T00101075  RH  053%=      5-min Rain = 0
KDC1 200734Z 27006KT 01/M08 A3034 RMK A01 T00091075  RH  053%=      5-min Rain = 0
KDC1 200735Z 28006KT 01/M08 A3034 RMK A01 T00081076  RH  053%=      5-min Rain = 0
KDC1 200736Z 28006KT 01/M08 A3034 RMK A01 T00081076  RH  053%=      5-min Rain = 0
KDC1 200737Z 29006KT 01/M08 A3033 RMK A01 T00071077  RH  054%=      5-min Rain = 0
KDC1 200738Z 29007KT 01/M08 A3033 RMK A01 T00061077  RH  054%=      5-min Rain = 0
KDC1 200739Z 30008KT 01/M08 A3033 RMK A01 T00051078  RH  053%=      5-min Rain = 0
KDC1 200740Z 30008KT 00/M08 A3033 RMK A01 T00041079  RH  054%=      5-min Rain = 0
KDC1 200741Z 30007KT 00/M08 A3033 RMK A01 T00031079  RH  054%=      5-min Rain = 0
KDC1 200742Z 30008KT 00/M08 A3033 RMK A01 T00041079  RH  054%=      5-min Rain = 0
KDC1 200743Z 30008KT 00/M08 A3033 RMK A01 T00031079  RH  054%=      5-min Rain = 0
KDC1 200744Z 31007KT 00/M08 A3033 RMK A01 T00031078  RH  054%=      5-min Rain = 0
KDC1 200745Z 30008KT 00/M08 A3033 RMK A01 T00041077  RH  055%=      5-min Rain = 0
KDC1 200746Z 30007KT 01/M08 A3033 RMK A01 T00051076  RH  054%=      5-min Rain = 0
KDC1 200747Z 30008KT 01/M08 A3033 RMK A01 T00061076  RH  054%=      5-min Rain = 0
KDC1 200748Z 30008KT 01/M08 A3033 RMK A01 T00051076  RH  055%=      5-min Rain = 0
KDC1 200749Z 31008KT 00/M08 A3033 RMK A01 T00041076  RH  055%=      5-min Rain = 0
KDC1 200750Z 30008KT 00/M08 A3033 RMK A01 T00041076  RH  055%=      5-min Rain = 0
KDC1 200751Z 30008KT 00/M08 A3033 RMK A01 T00041076  RH  055%=      5-min Rain = 0
KDC1 200752Z 30008KT 01/M08 A3033 RMK A01 T00051076  RH  055%=      5-min Rain = 0
KDC1 200753Z 30008KT 01/M08 A3033 RMK A01 T00061076  RH  054%=      5-min Rain = 0
KDC1 200754Z 30008KT 01/M08 A3033 RMK A01 T00071076  RH  054%=      5-min Rain = 0
KDC1 200755Z 30008KT 01/M08 A3033 RMK A01 T00091076  RH  053%=      5-min Rain = 0
KDC1 200756Z 29008KT 01/M08 A3033 RMK A01 T00091077  RH  053%=      5-min Rain = 0
KDC1 200757Z 30008KT 01/M08 A3033 RMK A01 T00091077  RH  052%=      5-min Rain = 0
KDC1 200758Z 30008KT 01/M08 A3033 RMK A01 T00081078  RH  053%=      5-min Rain = 0
KDC1 200759Z 30007KT 01/M08 A3033 RMK A01 T00061078  RH  053%=      5-min Rain = 0
KDC1 200800Z 30007KT 01/M08 A3033 RMK A01 T00051078  RH  054%=      5-min Rain = 0
KDC1 200801Z 30006KT 00/M08 A3033 RMK A01 T00031078  RH  055%=      5-min Rain = 0
KDC1 200802Z 30006KT 00/M08 A3033 RMK A01 T00011078  RH  055%=      5-min Rain = 0
KDC1 200803Z 29006KT 00/08 A3033 RMK A01 T00-00-78  RH  056%=      5-min Rain = 0
KDC1 200804Z 30005KT M00/M08 A3033 RMK A01 T10021077  RH  057%=      5-min Rain = 0
KDC1 200805Z 30005KT M00/M08 A3033 RMK A01 T10031076  RH  058%=      5-min Rain = 0
KDC1 200806Z 30006KT M00/M08 A3033 RMK A01 T10041075  RH  058%=      5-min Rain = 0
KDC1 200807Z 30007KT M00/M08 A3033 RMK A01 T10041075  RH  059%=      5-min Rain = 0
KDC1 200808Z 30007KT M00/M08 A3033 RMK A01 T10041075  RH  059%=      5-min Rain = 0
KDC1 200809Z 30006KT M00/M08 A3033 RMK A01 T10041076  RH  058%=      5-min Rain = 0
KDC1 200810Z 31005KT M00/M08 A3033 RMK A01 T10041076  RH  058%=      5-min Rain = 0
KDC1 200811Z 31005KT M00/M08 A3033 RMK A01 T10041075  RH  059%=      5-min Rain = 0
KDC1 200812Z 31005KT M00/M08 A3033 RMK A01 T10041075  RH  059%=      5-min Rain = 0
KDC1 200813Z 32005KT M00/M08 A3033 RMK A01 T10041075  RH  059%=      5-min Rain = 0
KDC1 200814Z 31006KT M00/M07 A3033 RMK A01 T10041074  RH  059%=      5-min Rain = 0
KDC1 200815Z 32007KT M01/M07 A3033 RMK A01 T10051074  RH  059%=      5-min Rain = 0
KDC1 200816Z 32006KT M00/M07 A3033 RMK A01 T10041074  RH  059%=      5-min Rain = 0
KDC1 200817Z 32007KT M01/M07 A3033 RMK A01 T10051074  RH  060%=      5-min Rain = 0
KDC1 200818Z 32007KT M01/M07 A3033 RMK A01 T10051073  RH  060%=      5-min Rain = 0
KDC1 200819Z 33006KT M01/M07 A3033 RMK A01 T10051072  RH  060%=      5-min Rain = 0
KDC1 200820Z 33007KT M01/M07 A3033 RMK A01 T10051072  RH  061%=      5-min Rain = 0
KDC1 200821Z 33007KT M01/M07 A3033 RMK A01 T10051073  RH  060%=      5-min Rain = 0
KDC1 200822Z 33007KT M01/M07 A3033 RMK A01 T10051074  RH  060%=      5-min Rain = 0
KDC1 200823Z 33007KT M00/M07 A3033 RMK A01 T10041074  RH  059%=      5-min Rain = 0
KDC1 200824Z 33007KT M00/M08 A3033 RMK A01 T10041075  RH  059%=      5-min Rain = 0
KDC1 200825Z 33007KT M00/M08 A3033 RMK A01 T10041075  RH  059%=      5-min Rain = 0
KDC1 200826Z 33007KT M00/M08 A3032 RMK A01 T10041075  RH  059%=      5-min Rain = 0
KDC1 200827Z 33007KT M00/M08 A3032 RMK A01 T10041075  RH  059%=      5-min Rain = 0
KDC1 200828Z 33007KT M01/M07 A3032 RMK A01 T10051074  RH  059%=      5-min Rain = 0
KDC1 200829Z 32007KT M01/M07 A3032 RMK A01 T10071074  RH  060%=      5-min Rain = 0
KDC1 200830Z 32006KT M01/M07 A3032 RMK A01 T10091073  RH  062%=      5-min Rain = 0
KDC1 200831Z 32006KT M01/M07 A3032 RMK A01 T10101072  RH  063%=      5-min Rain = 0
KDC1 200832Z 31005KT M01/M07 A3032 RMK A01 T10121072  RH  064%=      5-min Rain = 0
KDC1 200833Z 30004KT M01/M07 A3032 RMK A01 T10121072  RH  064%=      5-min Rain = 0
KDC1 200834Z 30004KT M01/M07 A3033 RMK A01 T10131072  RH  064%=      5-min Rain = 0
KDC1 200835Z 30005KT M01/M07 A3033 RMK A01 T10121072  RH  064%=      5-min Rain = 0
KDC1 200836Z 31005KT M01/M07 A3033 RMK A01 T10121073  RH  063%=      5-min Rain = 0
KDC1 200837Z 31005KT M01/M07 A3033 RMK A01 T10101073  RH  062%=      5-min Rain = 0
KDC1 200838Z 31005KT M01/M07 A3033 RMK A01 T10101073  RH  062%=      5-min Rain = 0
KDC1 200839Z 30005KT M01/M07 A3033 RMK A01 T10101074  RH  061%=      5-min Rain = 0
KDC1 200840Z 30005KT M01/M08 A3033 RMK A01 T10101076  RH  061%=      5-min Rain = 0
KDC1 200841Z 29005KT M01/M08 A3033 RMK A01 T10101078  RH  060%=      5-min Rain = 0
KDC1 200842Z 28005KT M01/M08 A3033 RMK A01 T10111080  RH  060%=      5-min Rain = 0
KDC1 200843Z 28006KT M01/M08 A3032 RMK A01 T10121081  RH  059%=      5-min Rain = 0
KDC1 200844Z 28006KT M01/M08 A3032 RMK A01 T10131082  RH  060%=      5-min Rain = 0
KDC1 200845Z 28007KT M01/M08 A3032 RMK A01 T10131081  RH  060%=      5-min Rain = 0
KDC1 200846Z 28006KT M01/M08 A3032 RMK A01 T10131081  RH  060%=      5-min Rain = 0
KDC1 200847Z 28006KT M01/M08 A3032 RMK A01 T10141081  RH  060%=      5-min Rain = 0
KDC1 200848Z 28006KT M01/M08 A3032 RMK A01 T10131081  RH  060%=      5-min Rain = 0
KDC1 200849Z 29006KT M01/M08 A3032 RMK A01 T10141081  RH  060%=      5-min Rain = 0
KDC1 200850Z 29005KT M01/M08 A3032 RMK A01 T10141082  RH  060%=      5-min Rain = 0
KDC1 200851Z 29005KT M01/M08 A3032 RMK A01 T10141082  RH  060%=      5-min Rain = 0
KDC1 200852Z 29005KT M01/M08 A3032 RMK A01 T10131082  RH  059%=      5-min Rain = 0
KDC1 200853Z 29006KT M01/M08 A3032 RMK A01 T10131082  RH  059%=      5-min Rain = 0
KDC1 200854Z 29006KT M01/M08 A3032 RMK A01 T10131083  RH  059%=      5-min Rain = 0
KDC1 200855Z 30007KT M01/M08 A3032 RMK A01 T10131083  RH  059%=      5-min Rain = 0
KDC1 200856Z 31007KT M01/M08 A3032 RMK A01 T10131083  RH  059%=      5-min Rain = 0
KDC1 200857Z 30007KT M01/M08 A3031 RMK A01 T10121082  RH  059%=      5-min Rain = 0
KDC1 200858Z 30007KT M01/M08 A3031 RMK A01 T10121082  RH  059%=      5-min Rain = 0
KDC1 200859Z 30007KT M01/M08 A3031 RMK A01 T10121081  RH  059%=      5-min Rain = 0
KDC1 200900Z 30008KT M01/M08 A3031 RMK A01 T10121081  RH  059%=      5-min Rain = 0
KDC1 200901Z 31008KT M01/M08 A3031 RMK A01 T10111081  RH  059%=      5-min Rain = 0
KDC1 200902Z 31007KT M01/M08 A3031 RMK A01 T10101080  RH  059%=      5-min Rain = 0
KDC1 200903Z 31007KT M01/M08 A3031 RMK A01 T10091080  RH  059%=      5-min Rain = 0
KDC1 200904Z 31007KT M01/M08 A3031 RMK A01 T10081079  RH  058%=      5-min Rain = 0
KDC1 200905Z 30007KT M01/M08 A3031 RMK A01 T10071079  RH  058%=      5-min Rain = 0
KDC1 200906Z 30007KT M01/M08 A3031 RMK A01 T10071079  RH  058%=      5-min Rain = 0
KDC1 200907Z 30007KT M01/M08 A3031 RMK A01 T10071079  RH  058%=      5-min Rain = 0
KDC1 200908Z 30007KT M01/M08 A3031 RMK A01 T10071079  RH  058%=      5-min Rain = 0
KDC1 200909Z 30007KT M01/M08 A3031 RMK A01 T10071080  RH  058%=      5-min Rain = 0
KDC1 200910Z 30007KT M01/M08 A3031 RMK A01 T10071080  RH  058%=      5-min Rain = 0
KDC1 200911Z 30007KT M01/M08 A3031 RMK A01 T10071080  RH  058%=      5-min Rain = 0
KDC1 200912Z 30007KT M01/M08 A3031 RMK A01 T10071079  RH  058%=      5-min Rain = 0
KDC1 200913Z 30007KT M01/M08 A3031 RMK A01 T10071079  RH  058%=      5-min Rain = 0
KDC1 200914Z 29006KT M01/M08 A3031 RMK A01 T10071079  RH  058%=      5-min Rain = 0
KDC1 200915Z 29007KT M01/M08 A303 RMK A01 T10081079  RH  059%=      5-min Rain = 0
KDC1 200916Z 29007KT M01/M08 A303 RMK A01 T10101080  RH  059%=      5-min Rain = 0
KDC1 200917Z 29007KT M01/M08 A303 RMK A01 T10121081  RH  059%=      5-min Rain = 0
KDC1 200918Z 28007KT M01/M08 A303 RMK A01 T10121081  RH  060%=      5-min Rain = 0
KDC1 200919Z 28007KT M01/M08 A303 RMK A01 T10131081  RH  060%=      5-min Rain = 0
KDC1 200920Z 29007KT M01/M08 A303 RMK A01 T10131081  RH  060%=      5-min Rain = 0
KDC1 200921Z 29007KT M01/M08 A303 RMK A01 T10131081  RH  060%=      5-min Rain = 0
KDC1 200922Z 30007KT M01/M08 A303 RMK A01 T10131081  RH  060%=      5-min Rain = 0
KDC1 200923Z 29007KT M01/M08 A303 RMK A01 T10141081  RH  060%=      5-min Rain = 0
KDC1 200924Z 29007KT M01/M08 A303 RMK A01 T10141082  RH  060%=      5-min Rain = 0
KDC1 200925Z 28007KT M02/M08 A303 RMK A01 T10151082  RH  060%=      5-min Rain = 0
KDC1 200926Z 28007KT M02/M08 A3031 RMK A01 T10161083  RH  060%=      5-min Rain = 0
KDC1 200927Z 28006KT M02/M08 A3031 RMK A01 T10161082  RH  061%=      5-min Rain = 0
KDC1 200928Z 29007KT M02/M08 A303 RMK A01 T10161083  RH  061%=      5-min Rain = 0
KDC1 200929Z 30007KT M02/M08 A303 RMK A01 T10161083  RH  060%=      5-min Rain = 0
KDC1 200930Z 29007KT M02/M08 A303 RMK A01 T10151083  RH  060%=      5-min Rain = 0
KDC1 200931Z 29007KT M02/M08 A303 RMK A01 T10151083  RH  060%=      5-min Rain = 0
KDC1 200932Z 29007KT M01/M08 A303 RMK A01 T10141083  RH  060%=      5-min Rain = 0
KDC1 200933Z 29007KT M02/M08 A303 RMK A01 T10151084  RH  059%=      5-min Rain = 0
KDC1 200934Z 28006KT M02/M08 A303 RMK A01 T10151084  RH  059%=      5-min Rain = 0
KDC1 200935Z 28006KT M02/M08 A303 RMK A01 T10151084  RH  060%=      5-min Rain = 0
KDC1 200936Z 28006KT M02/M08 A303 RMK A01 T10161083  RH  060%=      5-min Rain = 0
KDC1 200937Z 28006KT M02/M08 A303 RMK A01 T10161084  RH  060%=      5-min Rain = 0
KDC1 200938Z 28006KT M02/M08 A303 RMK A01 T10161084  RH  060%=      5-min Rain = 0
KDC1 200939Z 28006KT M02/M08 A303 RMK A01 T10161084  RH  060%=      5-min Rain = 0
KDC1 200940Z 28006KT M02/M08 A303 RMK A01 T10161084  RH  060%=      5-min Rain = 0
KDC1 200941Z 29006KT M02/M09 A303 RMK A01 T10161085  RH  059%=      5-min Rain = 0
KDC1 200942Z 29006KT M02/M09 A303 RMK A01 T10161085  RH  059%=      5-min Rain = 0
KDC1 200943Z 29006KT M02/M09 A303 RMK A01 T10161085  RH  059%=      5-min Rain = 0
KDC1 200944Z 30005KT M02/M09 A303 RMK A01 T10161085  RH  059%=      5-min Rain = 0
KDC1 200945Z 29005KT M02/M09 A303 RMK A01 T10161086  RH  059%=      5-min Rain = 0
KDC1 200946Z 29005KT M02/M09 A303 RMK A01 T10161086  RH  059%=      5-min Rain = 0
KDC1 200947Z 29005KT M02/M09 A303 RMK A01 T10161086  RH  059%=      5-min Rain = 0
KDC1 200948Z 29005KT M02/M09 A303 RMK A01 T10161085  RH  059%=      5-min Rain = 0
KDC1 200949Z 28005KT M02/M09 A303 RMK A01 T10161085  RH  059%=      5-min Rain = 0
KDC1 200950Z 27005KT M02/M09 A303 RMK A01 T10151086  RH  059%=      5-min Rain = 0
KDC1 200951Z 26005KT M02/M09 A303 RMK A01 T10151086  RH  058%=      5-min Rain = 0
KDC1 200952Z 26004KT M01/M09 A303 RMK A01 T10131086  RH  058%=      5-min Rain = 0
KDC1 200953Z 27004KT M01/M09 A303 RMK A01 T10131087  RH  057%=      5-min Rain = 0
KDC1 200954Z 27004KT M01/M09 A303 RMK A01 T10131087  RH  057%=      5-min Rain = 0
KDC1 200955Z 26005KT M01/M09 A303 RMK A01 T10131087  RH  057%=      5-min Rain = 0
KDC1 200956Z 27006KT M01/M09 A303 RMK A01 T10131086  RH  058%=      5-min Rain = 0
KDC1 200957Z 28006KT M01/M09 A303 RMK A01 T10131085  RH  058%=      5-min Rain = 0
KDC1 200958Z 28005KT M01/M09 A303 RMK A01 T10131085  RH  058%=      5-min Rain = 0
KDC1 200959Z 29005KT M01/M09 A303 RMK A01 T10131085  RH  058%=      5-min Rain = 0
KDC1 201000Z 29005KT M01/M09 A303 RMK A01 T10131086  RH  058%=      5-min Rain = 0
KDC1 201001Z 29005KT M01/M09 A303 RMK A01 T10131086  RH  058%=      5-min Rain = 0
KDC1 201002Z 28005KT M01/M09 A303 RMK A01 T10131086  RH  058%=      5-min Rain = 0
KDC1 201003Z 28006KT M01/M09 A303 RMK A01 T10141086  RH  058%=      5-min Rain = 0
KDC1 201004Z 29006KT M01/M09 A303 RMK A01 T10141085  RH  059%=      5-min Rain = 0
KDC1 201005Z 29006KT M02/M09 A303 RMK A01 T10151085  RH  059%=      5-min Rain = 0
KDC1 201006Z 28006KT M02/M08 A303 RMK A01 T10151084  RH  059%=      5-min Rain = 0
KDC1 201007Z 29005KT M02/M09 A303 RMK A01 T10151085  RH  059%=      5-min Rain = 0
KDC1 201008Z 28003KT M01/M09 A303 RMK A01 T10141085  RH  059%=      5-min Rain = 0
KDC1 201009Z 26003KT M01/M09 A3031 RMK A01 T10141085  RH  058%=      5-min Rain = 0
KDC1 201010Z 26004KT M01/M09 A3031 RMK A01 T10141086  RH  058%=      5-min Rain = 0
KDC1 201011Z 24004KT M01/M09 A3031 RMK A01 T10141086  RH  058%=      5-min Rain = 0
KDC1 201012Z 20002KT M01/M09 A3031 RMK A01 T10131086  RH  058%=      5-min Rain = 0
KDC1 201013Z 21003KT M01/M08 A3031 RMK A01 T10131084  RH  058%=      5-min Rain = 0
KDC1 201014Z 23003KT M01/M08 A3031 RMK A01 T10141082  RH  060%=      5-min Rain = 0
KDC1 201015Z 24002KT M02/M08 A3031 RMK A01 T10151081  RH  060%=      5-min Rain = 0
KDC1 201016Z 24003KT M02/M08 A3031 RMK A01 T10151081  RH  061%=      5-min Rain = 0
KDC1 201017Z 25005KT M02/M08 A3031 RMK A01 T10151080  RH  061%=      5-min Rain = 0
KDC1 201018Z 26005KT M02/M08 A3031 RMK A01 T10151080  RH  061%=      5-min Rain = 0
KDC1 201019Z 27004KT M01/M08 A3031 RMK A01 T10141080  RH  061%=      5-min Rain = 0
KDC1 201020Z 27004KT M01/M08 A3031 RMK A01 T10121080  RH  060%=      5-min Rain = 0
KDC1 201021Z 26004KT M01/M08 A3031 RMK A01 T10111081  RH  059%=      5-min Rain = 0
KDC1 201022Z 25005KT M01/M08 A3031 RMK A01 T10101081  RH  059%=      5-min Rain = 0
KDC1 201023Z 25005KT M01/M08 A3031 RMK A01 T10101081  RH  058%=      5-min Rain = 0
KDC1 201024Z 26004KT M01/M08 A3031 RMK A01 T10091082  RH  058%=      5-min Rain = 0
KDC1 201025Z 27004KT M01/M08 A3031 RMK A01 T10091082  RH  058%=      5-min Rain = 0
KDC1 201026Z 28005KT M01/M08 A3031 RMK A01 T10091081  RH  058%=      5-min Rain = 0
KDC1 201027Z 26005KT M01/M08 A3031 RMK A01 T10091081  RH  058%=      5-min Rain = 0
KDC1 201028Z 26005KT M01/M08 A3031 RMK A01 T10101081  RH  059%=      5-min Rain = 0
KDC1 201029Z 25004KT M01/M08 A3031 RMK A01 T10111081  RH  059%=      5-min Rain = 0
KDC1 201030Z 26004KT M01/M08 A3031 RMK A01 T10101081  RH  059%=      5-min Rain = 0
KDC1 201031Z 25004KT M01/M08 A3031 RMK A01 T10101081  RH  059%=      5-min Rain = 0
KDC1 201032Z 25006KT M01/M08 A3031 RMK A01 T10101081  RH  059%=      5-min Rain = 0
KDC1 201033Z 25006KT M01/M08 A3031 RMK A01 T10101080  RH  059%=      5-min Rain = 0
KDC1 201034Z 25005KT M01/M08 A3031 RMK A01 T10101080  RH  059%=      5-min Rain = 0
KDC1 201035Z 25005KT M01/M08 A3031 RMK A01 T10101080  RH  059%=      5-min Rain = 0
KDC1 201036Z 26007KT M01/M08 A3031 RMK A01 T10101081  RH  059%=      5-min Rain = 0
KDC1 201037Z 26006KT M01/M08 A3031 RMK A01 T10101080  RH  059%=      5-min Rain = 0
KDC1 201038Z 25005KT M01/M08 A3031 RMK A01 T10101080  RH  059%=      5-min Rain = 0
KDC1 201039Z 23003KT M01/M08 A3031 RMK A01 T10101080  RH  059%=      5-min Rain = 0
KDC1 201040Z 24005KT M01/M08 A3031 RMK A01 T10101081  RH  059%=      5-min Rain = 0
KDC1 201041Z 24005KT M01/M08 A3031 RMK A01 T10091081  RH  058%=      5-min Rain = 0
KDC1 201042Z 24004KT M01/M08 A3031 RMK A01 T10081081  RH  058%=      5-min Rain = 0
KDC1 201043Z 26004KT M01/M08 A3031 RMK A01 T10071080  RH  058%=      5-min Rain = 0
KDC1 201044Z 28004KT M01/M08 A303 RMK A01 T10071080  RH  058%=      5-min Rain = 0
KDC1 201045Z 27005KT M01/M08 A303 RMK A01 T10071079  RH  058%=      5-min Rain = 0
KDC1 201046Z 26005KT M01/M08 A303 RMK A01 T10091080  RH  059%=      5-min Rain = 0
KDC1 201047Z 26004KT M01/M08 A303 RMK A01 T10111080  RH  059%=      5-min Rain = 0
KDC1 201048Z 27004KT M01/M08 A303 RMK A01 T10131079  RH  060%=      5-min Rain = 0
KDC1 201049Z 27004KT M01/M08 A303 RMK A01 T10141078  RH  062%=      5-min Rain = 0
KDC1 201050Z 27004KT M02/M08 A303 RMK A01 T10161078  RH  063%=      5-min Rain = 0
KDC1 201051Z 26004KT M02/M08 A303 RMK A01 T10171078  RH  063%=      5-min Rain = 0
KDC1 201052Z 26004KT M02/M08 A303 RMK A01 T10171079  RH  063%=      5-min Rain = 0
KDC1 201053Z 27004KT M02/M08 A303 RMK A01 T10161079  RH  062%=      5-min Rain = 0
KDC1 201054Z 28004KT M01/M08 A303 RMK A01 T10141079  RH  061%=      5-min Rain = 0
KDC1 201055Z 30004KT M01/M08 A303 RMK A01 T10141079  RH  061%=      5-min Rain = 0
KDC1 201056Z 29004KT M02/M08 A303 RMK A01 T10151081  RH  061%=      5-min Rain = 0
KDC1 201057Z 28004KT M02/M08 A303 RMK A01 T10161081  RH  061%=      5-min Rain = 0
KDC1 201058Z 27005KT M02/M08 A303 RMK A01 T10171082  RH  062%=      5-min Rain = 0
KDC1 201059Z 27005KT M02/M08 A303 RMK A01 T10181082  RH  062%=      5-min Rain = 0
KDC1 201100Z 27005KT M02/M08 A303 RMK A01 T10181083  RH  061%=      5-min Rain = 0
KDC1 201101Z 27004KT M02/M08 A3029 RMK A01 T10181083  RH  061%=      5-min Rain = 0
KDC1 201102Z 27004KT M02/M08 A3029 RMK A01 T10181084  RH  061%=      5-min Rain = 0
KDC1 201103Z 27004KT M02/M08 A3029 RMK A01 T10181084  RH  061%=      5-min Rain = 0
KDC1 201104Z 26003KT M02/M08 A3029 RMK A01 T10181084  RH  061%=      5-min Rain = 0
KDC1 201105Z 26003KT M02/M08 A3029 RMK A01 T10181084  RH  061%=      5-min Rain = 0
KDC1 201106Z 26004KT M02/M08 A303 RMK A01 T10181084  RH  060%=      5-min Rain = 0
KDC1 201107Z 26003KT M02/M09 A303 RMK A01 T10181085  RH  060%=      5-min Rain = 0
KDC1 201108Z 26003KT M02/M09 A303 RMK A01 T10171085  RH  060%=      5-min Rain = 0
KDC1 201109Z 26003KT M02/M09 A303 RMK A01 T10171085  RH  060%=      5-min Rain = 0
KDC1 201110Z 26003KT M02/M09 A303 RMK A01 T10171086  RH  059%=      5-min Rain = 0
KDC1 201111Z 26003KT M02/M09 A303 RMK A01 T10171085  RH  060%=      5-min Rain = 0
KDC1 201112Z 26001KT M02/M09 A303 RMK A01 T10161085  RH  060%=      5-min Rain = 0
KDC1 201113Z 30001KT M02/M09 A303 RMK A01 T10171085  RH  060%=      5-min Rain = 0
KDC1 201114Z 31002KT M02/M09 A303 RMK A01 T10171085  RH  060%=      5-min Rain = 0
KDC1 201115Z 34003KT M02/M09 A3029 RMK A01 T10201085  RH  061%=      5-min Rain = 0
KDC1 201116Z 32002KT M02/M09 A3029 RMK A01 T10221085  RH  062%=      5-min Rain = 0
KDC1 201117Z 31003KT M02/M08 A3029 RMK A01 T10231083  RH  063%=      5-min Rain = 0
KDC1 201118Z 30003KT M02/M08 A3029 RMK A01 T10241083  RH  064%=      5-min Rain = 0
KDC1 201119Z 32003KT M03/M08 A3029 RMK A01 T10251082  RH  065%=      5-min Rain = 0
KDC1 201120Z 31002KT M03/M08 A3029 RMK A01 T10251081  RH  065%=      5-min Rain = 0
KDC1 201121Z 31002KT M03/M08 A3029 RMK A01 T10251081  RH  065%=      5-min Rain = 0
KDC1 201122Z 31003KT M03/M08 A3029 RMK A01 T10251081  RH  065%=      5-min Rain = 0
KDC1 201123Z 29002KT M03/M08 A3029 RMK A01 T10251081  RH  065%=      5-min Rain = 0
KDC1 201124Z 26002KT M03/M08 A3029 RMK A01 T10251082  RH  065%=      5-min Rain = 0
KDC1 201125Z 24002KT M02/M08 A3029 RMK A01 T10241082  RH  064%=      5-min Rain = 0
KDC1 201126Z 25002KT M02/M08 A3029 RMK A01 T10231082  RH  064%=      5-min Rain = 0
KDC1 201127Z 26001KT M02/M08 A3029 RMK A01 T10221082  RH  064%=      5-min Rain = 0
KDC1 201128Z 28001KT M02/M08 A3029 RMK A01 T10231081  RH  065%=      5-min Rain = 0
KDC1 201129Z 28001KT M02/M08 A3029 RMK A01 T10241081  RH  065%=      5-min Rain = 0
KDC1 201130Z 29002KT M02/M08 A3029 RMK A01 T10241082  RH  065%=      5-min Rain = 0
KDC1 201131Z 31003KT M03/M08 A3029 RMK A01 T10251082  RH  065%=      5-min Rain = 0
KDC1 201132Z 31003KT M03/M08 A3029 RMK A01 T10251082  RH  065%=      5-min Rain = 0
KDC1 201133Z 31005KT M02/M08 A3029 RMK A01 T10241083  RH  064%=      5-min Rain = 0
KDC1 201134Z 31005KT M02/M08 A3029 RMK A01 T10221083  RH  063%=      5-min Rain = 0
KDC1 201135Z 30005KT M02/M08 A3029 RMK A01 T10221083  RH  063%=      5-min Rain = 0
KDC1 201136Z 30004KT M02/M08 A3029 RMK A01 T10221083  RH  063%=      5-min Rain = 0
KDC1 201137Z 31005KT M02/M08 A3029 RMK A01 T10231083  RH  064%=      5-min Rain = 0
KDC1 201138Z 31005KT M03/M08 A3029 RMK A01 T10261084  RH  065%=      5-min Rain = 0
KDC1 201139Z 32005KT M03/M08 A3029 RMK A01 T10281084  RH  066%=      5-min Rain = 0
KDC1 201140Z 32005KT M03/M08 A3029 RMK A01 T10301083  RH  067%=      5-min Rain = 0
KDC1 201141Z 32005KT M03/M08 A3029 RMK A01 T10321083  RH  068%=      5-min Rain = 0
KDC1 201142Z 32005KT M03/M08 A3029 RMK A01 T10331082  RH  069%=      5-min Rain = 0
KDC1 201143Z 31005KT M03/M08 A3029 RMK A01 T10341082  RH  069%=      5-min Rain = 0
KDC1 201144Z 29005KT M03/M08 A3029 RMK A01 T10331082  RH  069%=      5-min Rain = 0
KDC1 201145Z 29004KT M03/M08 A3029 RMK A01 T10331083  RH  069%=      5-min Rain = 0
KDC1 201146Z 29004KT M03/M08 A3029 RMK A01 T10331084  RH  068%=      5-min Rain = 0
KDC1 201147Z 29004KT M03/M08 A3029 RMK A01 T10331084  RH  068%=      5-min Rain = 0
KDC1 201148Z 29004KT M03/M08 A3029 RMK A01 T10331084  RH  068%=      5-min Rain = 0
KDC1 201149Z 29003KT M03/M08 A3029 RMK A01 T10301084  RH  067%=      5-min Rain = 0
KDC1 201150Z 29004KT M03/M08 A3029 RMK A01 T10281084  RH  066%=      5-min Rain = 0
KDC1 201151Z 27004KT M03/M09 A3029 RMK A01 T10271085  RH  065%=      5-min Rain = 0
KDC1 201152Z 25005KT M03/M09 A3029 RMK A01 T10261085  RH  064%=      5-min Rain = 0
KDC1 201153Z 24004KT M03/M09 A3029 RMK A01 T10261085  RH  064%=      5-min Rain = 0
KDC1 201154Z 24004KT M02/M08 A3029 RMK A01 T10241084  RH  063%=      5-min Rain = 0
KDC1 201155Z 24004KT M02/M08 A3029 RMK A01 T10211084  RH  062%=      5-min Rain = 0
KDC1 201156Z 23004KT M02/M08 A3029 RMK A01 T10171083  RH  061%=      5-min Rain = 0
KDC1 201157Z 24004KT M02/M09 A3029 RMK A01 T10171085  RH  060%=      5-min Rain = 0
KDC1 201158Z 25004KT M02/M09 A3029 RMK A01 T10181087  RH  059%=      5-min Rain = 0
KDC1 201159Z 25005KT M02/M09 A3029 RMK A01 T10201088  RH  060%=      5-min Rain = 0
KDC1 201200Z 25005KT M02/M09 A3029 RMK A01 T10221088  RH  060%=      5-min Rain = 0
KDC1 201201Z 27004KT M02/M09 A3029 RMK A01 T10221088  RH  061%=      5-min Rain = 0
KDC1 201202Z 29004KT M02/M09 A3029 RMK A01 T10221088  RH  061%=      5-min Rain = 0
KDC1 201203Z 30004KT M02/M09 A3029 RMK A01 T10241087  RH  062%=      5-min Rain = 0
KDC1 201204Z 30005KT M03/M09 A3029 RMK A01 T10271086  RH  064%=      5-min Rain = 0
KDC1 201205Z 31005KT M03/M09 A3029 RMK A01 T10301086  RH  065%=      5-min Rain = 0
KDC1 201206Z 30004KT M03/M09 A3029 RMK A01 T10321085  RH  066%=      5-min Rain = 0
KDC1 201207Z 30004KT M03/M09 A3029 RMK A01 T10331085  RH  067%=      5-min Rain = 0
KDC1 201208Z 30003KT M03/M09 A3029 RMK A01 T10341085  RH  068%=      5-min Rain = 0
KDC1 201209Z 29003KT M03/M09 A3029 RMK A01 T10341085  RH  068%=      5-min Rain = 0
KDC1 201210Z 28002KT M03/M09 A3029 RMK A01 T10341085  RH  068%=      5-min Rain = 0
KDC1 201211Z 28002KT M03/M08 A3029 RMK A01 T10341084  RH  068%=      5-min Rain = 0
KDC1 201212Z 33002KT M03/M08 A3029 RMK A01 T10321084  RH  068%=      5-min Rain = 0
KDC1 201213Z 33003KT M03/M08 A3029 RMK A01 T10321084  RH  067%=      5-min Rain = 0
KDC1 201214Z 33003KT M03/M08 A3029 RMK A01 T10311083  RH  067%=      5-min Rain = 0
KDC1 201215Z 32004KT M03/M08 A3029 RMK A01 T10311083  RH  067%=      5-min Rain = 0
KDC1 201216Z 30005KT M03/M08 A3029 RMK A01 T10311083  RH  068%=      5-min Rain = 0
KDC1 201217Z 31006KT M03/M08 A3029 RMK A01 T10321082  RH  068%=      5-min Rain = 0
KDC1 201218Z 31005KT M03/M08 A3029 RMK A01 T10331082  RH  069%=      5-min Rain = 0
KDC1 201219Z 32004KT M03/M08 A3029 RMK A01 T10341082  RH  069%=      5-min Rain = 0
KDC1 201220Z 32004KT M03/M08 A3028 RMK A01 T10341082  RH  070%=      5-min Rain = 0
KDC1 201221Z 32005KT M03/M08 A3029 RMK A01 T10341082  RH  070%=      5-min Rain = 0
KDC1 201222Z 33005KT M03/M08 A3029 RMK A01 T10331081  RH  069%=      5-min Rain = 0
KDC1 201223Z 33005KT M03/M08 A3028 RMK A01 T10321081  RH  069%=      5-min Rain = 0
KDC1 201224Z 34005KT M03/M08 A3028 RMK A01 T10311080  RH  069%=      5-min Rain = 0
KDC1 201225Z 33005KT M03/M08 A3028 RMK A01 T10301080  RH  069%=      5-min Rain = 0
KDC1 201226Z 32005KT M03/M08 A3028 RMK A01 T10291080  RH  068%=      5-min Rain = 0
KDC1 201227Z 32005KT M03/M08 A3028 RMK A01 T10301080  RH  068%=      5-min Rain = 0
KDC1 201228Z 32004KT M03/M08 A3029 RMK A01 T10301080  RH  068%=      5-min Rain = 0
KDC1 201229Z 33004KT M03/M08 A3029 RMK A01 T10301080  RH  068%=      5-min Rain = 0
KDC1 201230Z 33003KT M03/M08 A3029 RMK A01 T10301079  RH  069%=      5-min Rain = 0
KDC1 201231Z 33003KT M03/M08 A3029 RMK A01 T10301079  RH  069%=      5-min Rain = 0
KDC1 201232Z 33003KT M03/M08 A3029 RMK A01 T10301079  RH  069%=      5-min Rain = 0
KDC1 201233Z 33003KT M03/M08 A3029 RMK A01 T10301079  RH  069%=      5-min Rain = 0
KDC1 201234Z 34003KT M03/M08 A3029 RMK A01 T10301079  RH  069%=      5-min Rain = 0
KDC1 201235Z 35003KT M03/M08 A3029 RMK A01 T10311079  RH  069%=      5-min Rain = 0
KDC1 201236Z 35002KT M03/M08 A3029 RMK A01 T10311080  RH  069%=      5-min Rain = 0
KDC1 201237Z 36002KT M03/M08 A3029 RMK A01 T10311080  RH  069%=      5-min Rain = 0
KDC1 201238Z 36002KT M03/M08 A3029 RMK A01 T10311080  RH  069%=      5-min Rain = 0
KDC1 201239Z 01002KT M03/M08 A3029 RMK A01 T10301079  RH  069%=      5-min Rain = 0
KDC1 201240Z 36002KT M03/M08 A3029 RMK A01 T10311080  RH  069%=      5-min Rain = 0
KDC1 201241Z 00002KT M03/M08 A3029 RMK A01 T10311080  RH  069%=      5-min Rain = 0
KDC1 201242Z 01002KT M03/M08 A3029 RMK A01 T10311080  RH  069%=      5-min Rain = 0
KDC1 201243Z 02002KT M03/M08 A3029 RMK A01 T10311080  RH  069%=      5-min Rain = 0
KDC1 201244Z 02003KT M03/M08 A3029 RMK A01 T10311079  RH  069%=      5-min Rain = 0
KDC1 201245Z 02003KT M03/M08 A3029 RMK A01 T10311080  RH  069%=      5-min Rain = 0
KDC1 201246Z 03002KT M03/M08 A3029 RMK A01 T10311080  RH  069%=      5-min Rain = 0
KDC1 201247Z 03002KT M03/M08 A3029 RMK A01 T10311081  RH  068%=      5-min Rain = 0
KDC1 201248Z 03001KT M03/M08 A3029 RMK A01 T10311082  RH  068%=      5-min Rain = 0
KDC1 201249Z 03001KT M03/M08 A3029 RMK A01 T10311082  RH  068%=      5-min Rain = 0
KDC1 201250Z 02001KT M03/M08 A3029 RMK A01 T10311082  RH  068%=      5-min Rain = 0
KDC1 201251Z 03002KT M03/M08 A303 RMK A01 T10301082  RH  068%=      5-min Rain = 0
KDC1 201252Z 03002KT M03/M08 A3029 RMK A01 T10301082  RH  067%=      5-min Rain = 0
KDC1 201253Z 02002KT M03/M08 A3029 RMK A01 T10301082  RH  067%=      5-min Rain = 0
KDC1 201254Z 02001KT M03/M08 A3029 RMK A01 T10301083  RH  067%=      5-min Rain = 0
KDC1 201255Z 04001KT M03/M08 A3029 RMK A01 T10291083  RH  067%=      5-min Rain = 0
KDC1 201256Z 06001KT M03/M08 A303 RMK A01 T10291082  RH  067%=      5-min Rain = 0
KDC1 201257Z 07002KT M03/M08 A303 RMK A01 T10291082  RH  067%=      5-min Rain = 0
KDC1 201258Z 08002KT M03/M08 A303 RMK A01 T10291082  RH  067%=      5-min Rain = 0
KDC1 201259Z 07002KT M03/M08 A303 RMK A01 T10291083  RH  067%=      5-min Rain = 0
KDC1 201300Z 05002KT M03/M08 A303 RMK A01 T10291083  RH  067%=      5-min Rain = 0
KDC1 201301Z 04003KT M03/M08 A303 RMK A01 T10291083  RH  067%=      5-min Rain = 0
KDC1 201302Z 04004KT M03/M08 A3029 RMK A01 T10301083  RH  066%=      5-min Rain = 0
KDC1 201303Z 04003KT M03/M08 A3029 RMK A01 T10301084  RH  066%=      5-min Rain = 0
KDC1 201304Z 04003KT M03/M08 A3029 RMK A01 T10301084  RH  067%=      5-min Rain = 0
KDC1 201305Z 03003KT M03/M08 A3029 RMK A01 T10311084  RH  067%=      5-min Rain = 0
KDC1 201306Z 04003KT M03/M08 A3029 RMK A01 T10311084  RH  067%=      5-min Rain = 0
KDC1 201307Z 05003KT M03/M08 A3029 RMK A01 T10311084  RH  067%=      5-min Rain = 0
KDC1 201308Z 06003KT M03/M08 A3029 RMK A01 T10301084  RH  067%=      5-min Rain = 0
KDC1 201309Z 06003KT M03/M08 A3029 RMK A01 T10301084  RH  066%=      5-min Rain = 0
KDC1 201310Z 06003KT M03/M09 A3029 RMK A01 T10311085  RH  066%=      5-min Rain = 0
KDC1 201311Z 06003KT M03/M08 A303 RMK A01 T10311084  RH  067%=      5-min Rain = 0
KDC1 201312Z 05003KT M03/M08 A303 RMK A01 T10311084  RH  067%=      5-min Rain = 0
KDC1 201313Z 05003KT M03/M08 A303 RMK A01 T10311083  RH  067%=      5-min Rain = 0
KDC1 201314Z 05003KT M03/M08 A303 RMK A01 T10311083  RH  067%=      5-min Rain = 0
KDC1 201315Z 05003KT M03/M08 A303 RMK A01 T10311083  RH  067%=      5-min Rain = 0
KDC1 201316Z 05003KT M03/M08 A303 RMK A01 T10311084  RH  067%=      5-min Rain = 0
KDC1 201317Z 04002KT M03/M08 A303 RMK A01 T10311084  RH  067%=      5-min Rain = 0
KDC1 201318Z 05002KT M03/M08 A303 RMK A01 T10311084  RH  067%=      5-min Rain = 0
KDC1 201319Z 05002KT M03/M08 A303 RMK A01 T10311084  RH  067%=      5-min Rain = 0
KDC1 201320Z 06002KT M03/M08 A303 RMK A01 T10321084  RH  067%=      5-min Rain = 0
KDC1 201321Z 05001KT M03/M08 A303 RMK A01 T10321084  RH  067%=      5-min Rain = 0
KDC1 201322Z 05001KT M03/M08 A303 RMK A01 T10321084  RH  067%=      5-min Rain = 0
KDC1 201323Z 05001KT M03/M08 A303 RMK A01 T10321084  RH  067%=      5-min Rain = 0
KDC1 201324Z 06001KT M03/M09 A303 RMK A01 T10321085  RH  067%=      5-min Rain = 0
KDC1 201325Z 05001KT M03/M09 A303 RMK A01 T10321085  RH  067%=      5-min Rain = 0
KDC1 201326Z 01002KT M03/M08 A303 RMK A01 T10321084  RH  067%=      5-min Rain = 0
KDC1 201327Z 34002KT M03/M08 A303 RMK A01 T10321084  RH  067%=      5-min Rain = 0
KDC1 201328Z 34001KT M03/M08 A303 RMK A01 T10321084  RH  067%=      5-min Rain = 0
KDC1 201329Z 34001KT M03/M08 A303 RMK A01 T10331082  RH  069%=      5-min Rain = 0
KDC1 201330Z 01001KT M03/M08 A303 RMK A01 T10341081  RH  070%=      5-min Rain = 0
KDC1 201331Z 00001KT M04/M08 A303 RMK A01 T10351081  RH  071%=      5-min Rain = 0
KDC1 201332Z 01001KT M04/M08 A303 RMK A01 T10361081  RH  071%=      5-min Rain = 0
KDC1 201333Z 02001KT M04/M08 A303 RMK A01 T10361081  RH  071%=      5-min Rain = 0
KDC1 201334Z 00002KT M04/M08 A303 RMK A01 T10361081  RH  071%=      5-min Rain = 0
KDC1 201335Z 31001KT M04/M08 A303 RMK A01 T10361081  RH  071%=      5-min Rain = 0
KDC1 201336Z 28001KT M04/M08 A303 RMK A01 T10371081  RH  071%=      5-min Rain = 0
KDC1 201337Z 28000KT M04/M08 A303 RMK A01 T10371080  RH  072%=      5-min Rain = 0
KDC1 201338Z 00000KT M04/M08 A303 RMK A01 T10361080  RH  072%=      5-min Rain = 0
KDC1 201339Z 35000KT M04/M08 A303 RMK A01 T10361080  RH  072%=      5-min Rain = 0
KDC1 201340Z 35002KT M04/M08 A303 RMK A01 T10361079  RH  072%=      5-min Rain = 0
KDC1 201341Z 35002KT M04/M08 A303 RMK A01 T10361080  RH  072%=      5-min Rain = 0
KDC1 201342Z 34002KT M04/M08 A303 RMK A01 T10361080  RH  072%=      5-min Rain = 0
KDC1 201343Z 34002KT M04/M08 A303 RMK A01 T10361080  RH  072%=      5-min Rain = 0
KDC1 201344Z 33002KT M04/M08 A3031 RMK A01 T10361079  RH  072%=      5-min Rain = 0
KDC1 201345Z 33002KT M04/M08 A3031 RMK A01 T10361079  RH  072%=      5-min Rain = 0
KDC1 201346Z 34002KT M04/M08 A303 RMK A01 T10371080  RH  072%=      5-min Rain = 0
KDC1 201347Z 36003KT M04/M08 A303 RMK A01 T10361080  RH  072%=      5-min Rain = 0
KDC1 201348Z 00004KT M04/M08 A303 RMK A01 T10361080  RH  072%=      5-min Rain = 0
KDC1 201349Z 00004KT M04/M08 A303 RMK A01 T10361080  RH  072%=      5-min Rain = 0
KDC1 201350Z 35004KT M04/M08 A303 RMK A01 T10361080  RH  071%=      5-min Rain = 0
KDC1 201351Z 35004KT M04/M08 A303 RMK A01 T10351080  RH  071%=      5-min Rain = 0
KDC1 201352Z 35003KT M04/M08 A303 RMK A01 T10351081  RH  071%=      5-min Rain = 0
KDC1 201353Z 35003KT M03/M08 A303 RMK A01 T10341080  RH  070%=      5-min Rain = 0
KDC1 201354Z 35003KT M03/M08 A3031 RMK A01 T10341081  RH  070%=      5-min Rain = 0
KDC1 201355Z 34002KT M03/M08 A3031 RMK A01 T10331081  RH  069%=      5-min Rain = 0
KDC1 201356Z 34002KT M03/M08 A3031 RMK A01 T10331082  RH  069%=      5-min Rain = 0
KDC1 201357Z 34002KT M03/M08 A3031 RMK A01 T10331082  RH  069%=      5-min Rain = 0
KDC1 201358Z 34002KT M03/M08 A3031 RMK A01 T10331082  RH  069%=      5-min Rain = 0
KDC1 201359Z 34003KT M03/M08 A3031 RMK A01 T10331081  RH  069%=      5-min Rain = 0
KDC1 201400Z 34004KT M03/M08 A303 RMK A01 T10331081  RH  070%=      5-min Rain = 0
KDC1 201401Z 34004KT M03/M08 A303 RMK A01 T10331080  RH  070%=      5-min Rain = 0
KDC1 201402Z 34004KT M03/M08 A303 RMK A01 T10331080  RH  070%=      5-min Rain = 0
KDC1 201403Z 34005KT M03/M08 A3031 RMK A01 T10341080  RH  071%=      5-min Rain = 0
KDC1 201404Z 35004KT M03/M08 A3031 RMK A01 T10341079  RH  071%=      5-min Rain = 0
KDC1 201405Z 35004KT M03/M08 A3031 RMK A01 T10341080  RH  071%=      5-min Rain = 0
KDC1 201406Z 35004KT M03/M08 A303 RMK A01 T10341081  RH  070%=      5-min Rain = 0
KDC1 201407Z 35004KT M03/M08 A303 RMK A01 T10341080  RH  070%=      5-min Rain = 0
KDC1 201408Z 35004KT M03/M08 A303 RMK A01 T10331080  RH  070%=      5-min Rain = 0
KDC1 201409Z 35005KT M03/M08 A303 RMK A01 T10321080  RH  069%=      5-min Rain = 0
KDC1 201410Z 35005KT M03/M08 A303 RMK A01 T10311080  RH  069%=      5-min Rain = 0
KDC1 201411Z 36005KT M03/M08 A303 RMK A01 T10311081  RH  068%=      5-min Rain = 0
KDC1 201412Z 36005KT M03/M08 A303 RMK A01 T10311081  RH  068%=      5-min Rain = 0
KDC1 201413Z 35005KT M03/M08 A303 RMK A01 T10301082  RH  067%=      5-min Rain = 0
KDC1 201414Z 36005KT M03/M08 A3031 RMK A01 T10301082  RH  067%=      5-min Rain = 0
KDC1 201415Z 00004KT M03/M08 A3031 RMK A01 T10301083  RH  067%=      5-min Rain = 0
KDC1 201416Z 00003KT M03/M08 A3031 RMK A01 T10301083  RH  067%=      5-min Rain = 0
KDC1 201417Z 01002KT M03/M08 A3031 RMK A01 T10291082  RH  067%=      5-min Rain = 0
KDC1 201418Z 02002KT M03/M08 A3031 RMK A01 T10291082  RH  067%=      5-min Rain = 0
KDC1 201419Z 02002KT M03/M08 A3031 RMK A01 T10281081  RH  067%=      5-min Rain = 0
KDC1 201420Z 02002KT M03/M08 A3031 RMK A01 T10281081  RH  067%=      5-min Rain = 0
KDC1 201421Z 03002KT M03/M08 A3031 RMK A01 T10281081  RH  067%=      5-min Rain = 0
KDC1 201422Z 03003KT M03/M08 A3031 RMK A01 T10281081  RH  067%=      5-min Rain = 0
KDC1 201423Z 04003KT M03/M08 A3031 RMK A01 T10281081  RH  067%=      5-min Rain = 0
KDC1 201424Z 04003KT M03/M08 A3031 RMK A01 T10281081  RH  067%=      5-min Rain = 0
KDC1 201425Z 05002KT M03/M08 A3031 RMK A01 T10281081  RH  067%=      5-min Rain = 0
KDC1 201426Z 07001KT M03/M08 A303 RMK A01 T10281082  RH  066%=      5-min Rain = 0
KDC1 201427Z 05002KT M03/M08 A303 RMK A01 T10271082  RH  066%=      5-min Rain = 0
KDC1 201428Z 02002KT M03/M08 A3031 RMK A01 T10261081  RH  066%=      5-min Rain = 0
KDC1 201429Z 02002KT M03/M08 A303 RMK A01 T10251082  RH  065%=      5-min Rain = 0
KDC1 201430Z 02003KT M02/M08 A303 RMK A01 T10241082  RH  064%=      5-min Rain = 0
KDC1 201431Z 01002KT M02/M08 A303 RMK A01 T10231082  RH  064%=      5-min Rain = 0
KDC1 201432Z 03002KT M02/M08 A303 RMK A01 T10231082  RH  064%=      5-min Rain = 0
KDC1 201433Z 05001KT M02/M08 A303 RMK A01 T10221081  RH  064%=      5-min Rain = 0
KDC1 201434Z 00000KT M02/M08 A303 RMK A01 T10221081  RH  064%=      5-min Rain = 0
KDC1 201435Z 00000KT M02/M08 A3031 RMK A01 T10211080  RH  064%=      5-min Rain = 0
KDC1 201436Z 02000KT M02/M08 A3031 RMK A01 T10221081  RH  064%=      5-min Rain = 0
KDC1 201437Z 02000KT M02/M08 A3031 RMK A01 T10211081  RH  064%=      5-min Rain = 0
KDC1 201438Z 02000KT M02/M08 A3031 RMK A01 T10201080  RH  064%=      5-min Rain = 0
KDC1 201439Z 33000KT M02/M08 A3031 RMK A01 T10201079  RH  064%=      5-min Rain = 0
KDC1 201440Z 33001KT M02/M08 A3031 RMK A01 T10191077  RH  065%=      5-min Rain = 0
KDC1 201441Z 32001KT M02/M08 A3031 RMK A01 T10201076  RH  066%=      5-min Rain = 0
KDC1 201442Z 30001KT M02/M08 A3031 RMK A01 T10211076  RH  066%=      5-min Rain = 0
KDC1 201443Z 28001KT M02/M07 A3031 RMK A01 T10221074  RH  067%=      5-min Rain = 0
KDC1 201444Z 27000KT M02/M08 A3031 RMK A01 T10241076  RH  068%=      5-min Rain = 0
KDC1 201445Z 27000KT M03/M08 A3031 RMK A01 T10251077  RH  067%=      5-min Rain = 0
KDC1 201446Z 29001KT M03/M08 A3031 RMK A01 T10251077  RH  067%=      5-min Rain = 0
KDC1 201447Z 30001KT M03/M08 A3031 RMK A01 T10251077  RH  067%=      5-min Rain = 0
KDC1 201448Z 31001KT M02/M08 A3031 RMK A01 T10241076  RH  067%=      5-min Rain = 0
KDC1 201449Z 32001KT M02/M08 A3031 RMK A01 T10231077  RH  067%=      5-min Rain = 0
KDC1 201450Z 32001KT M02/M08 A3031 RMK A01 T10221076  RH  067%=      5-min Rain = 0
KDC1 201451Z 33001KT M02/M08 A3031 RMK A01 T10221075  RH  067%=      5-min Rain = 0
KDC1 201452Z 34002KT M02/M07 A3031 RMK A01 T10211074  RH  067%=      5-min Rain = 0
KDC1 201453Z 33002KT M02/M08 A3031 RMK A01 T10201075  RH  066%=      5-min Rain = 0
KDC1 201454Z 33002KT M02/M08 A3031 RMK A01 T10191076  RH  065%=      5-min Rain = 0
KDC1 201455Z 32002KT M02/M08 A3031 RMK A01 T10171075  RH  065%=      5-min Rain = 0
KDC1 201456Z 32001KT M02/M07 A3031 RMK A01 T10161073  RH  065%=      5-min Rain = 0
KDC1 201457Z 31002KT M02/M07 A3031 RMK A01 T10151072  RH  065%=      5-min Rain = 0
KDC1 201458Z 31001KT M01/M07 A3031 RMK A01 T10141071  RH  065%=      5-min Rain = 0
KDC1 201459Z 30001KT M01/M07 A3031 RMK A01 T10131070  RH  065%=      5-min Rain = 0
KDC1 201500Z 29001KT M01/M07 A3031 RMK A01 T10121070  RH  065%=      5-min Rain = 0
KDC1 201501Z 29001KT M01/M07 A3032 RMK A01 T10111070  RH  064%=      5-min Rain = 0
KDC1 201502Z 30001KT M01/M07 A3032 RMK A01 T10101070  RH  064%=      5-min Rain = 0
KDC1 201503Z 30001KT M01/M07 A3032 RMK A01 T10091069  RH  064%=      5-min Rain = 0
KDC1 201504Z 30000KT M01/M07 A3032 RMK A01 T10081068  RH  064%=      5-min Rain = 0
KDC1 201505Z 26000KT M01/M07 A3032 RMK A01 T10071068  RH  063%=      5-min Rain = 0
KDC1 201506Z 26000KT M01/M07 A3032 RMK A01 T10061069  RH  063%=      5-min Rain = 0
KDC1 201507Z 00000KT M01/M07 A3032 RMK A01 T10051069  RH  062%=      5-min Rain = 0
KDC1 201508Z 33001KT M00/M07 A3031 RMK A01 T10041069  RH  062%=      5-min Rain = 0
KDC1 201509Z 35001KT M00/M07 A3031 RMK A01 T10041069  RH  061%=      5-min Rain = 0
KDC1 201510Z 00000KT M00/M07 A3031 RMK A01 T10031069  RH  061%=      5-min Rain = 0
KDC1 201511Z 00000KT M00/M07 A3031 RMK A01 T10021070  RH  060%=      5-min Rain = 0
KDC1 201512Z 35001KT M00/M07 A3031 RMK A01 T10021072  RH  059%=      5-min Rain = 0
KDC1 201513Z 01000KT M00/M07 A3032 RMK A01 T10021073  RH  059%=      5-min Rain = 0
KDC1 201514Z 03000KT M00/M07 A3032 RMK A01 T10021072  RH  059%=      5-min Rain = 0
KDC1 201515Z 00000KT M00/M07 A3032 RMK A01 T10011073  RH  059%=      5-min Rain = 0
KDC1 201516Z 00000KT M00/M07 A3032 RMK A01 T10011073  RH  058%=      5-min Rain = 0
KDC1 201517Z 00000KT 00/07 A3032 RMK A01 T00-00-72  RH  058%=      5-min Rain = 0
KDC1 201518Z 00000KT 00/M07 A3032 RMK A01 T00021071  RH  058%=      5-min Rain = 0
KDC1 201519Z 29000KT 00/M07 A3032 RMK A01 T00041070  RH  058%=      5-min Rain = 0
KDC1 201520Z 31001KT 01/M07 A3032 RMK A01 T00051070  RH  057%=      5-min Rain = 0
KDC1 201521Z 32002KT 01/M07 A3032 RMK A01 T00051073  RH  056%=      5-min Rain = 0
KDC1 201522Z 32002KT 00/M07 A3032 RMK A01 T00041074  RH  056%=      5-min Rain = 0
KDC1 201523Z 32001KT 00/M07 A3032 RMK A01 T00041074  RH  056%=      5-min Rain = 0
KDC1 201524Z 31000KT 00/M07 A3032 RMK A01 T00031073  RH  056%=      5-min Rain = 0
KDC1 201525Z 30001KT 00/M07 A3032 RMK A01 T00031073  RH  057%=      5-min Rain = 0
KDC1 201526Z 32001KT 00/M07 A3032 RMK A01 T00031073  RH  056%=      5-min Rain = 0
KDC1 201527Z 33002KT 00/M07 A3032 RMK A01 T00041072  RH  057%=      5-min Rain = 0
KDC1 201528Z 32002KT 01/M07 A3032 RMK A01 T00051072  RH  057%=      5-min Rain = 0
KDC1 201529Z 33002KT 01/M07 A3032 RMK A01 T00051072  RH  056%=      5-min Rain = 0
KDC1 201530Z 34002KT 01/M07 A3032 RMK A01 T00061070  RH  057%=      5-min Rain = 0
KDC1 201531Z 34002KT 01/M07 A3032 RMK A01 T00071070  RH  057%=      5-min Rain = 0
KDC1 201532Z 33002KT 01/M07 A3032 RMK A01 T00071068  RH  057%=      5-min Rain = 0
KDC1 201533Z 33002KT 01/M07 A3032 RMK A01 T00081068  RH  057%=      5-min Rain = 0
KDC1 201534Z 32002KT 01/M07 A3032 RMK A01 T00091068  RH  057%=      5-min Rain = 0
KDC1 201535Z 32002KT 01/M07 A3032 RMK A01 T00101067  RH  057%=      5-min Rain = 0
KDC1 201536Z 31001KT 01/M07 A3032 RMK A01 T00111068  RH  055%=      5-min Rain = 0
KDC1 201537Z 30001KT 01/M07 A3032 RMK A01 T00121069  RH  055%=      5-min Rain = 0
KDC1 201538Z 32001KT 01/M07 A3032 RMK A01 T00131068  RH  055%=      5-min Rain = 0
KDC1 201539Z 33001KT 01/M07 A3032 RMK A01 T00131066  RH  055%=      5-min Rain = 0
KDC1 201540Z 00001KT 02/M07 A3032 RMK A01 T00151066  RH  055%=      5-min Rain = 0
KDC1 201541Z 04001KT 02/M07 A3032 RMK A01 T00151070  RH  053%=      5-min Rain = 0
KDC1 201542Z 04000KT 02/M07 A3032 RMK A01 T00151070  RH  053%=      5-min Rain = 0
KDC1 201543Z 00000KT 02/M07 A3032 RMK A01 T00161069  RH  053%=      5-min Rain = 0
KDC1 201544Z 00001KT 02/M07 A3032 RMK A01 T00171068  RH  053%=      5-min Rain = 0
KDC1 201545Z 00001KT 02/M07 A3032 RMK A01 T00171068  RH  053%=      5-min Rain = 0
KDC1 201546Z 01000KT 02/M07 A3032 RMK A01 T00181066  RH  054%=      5-min Rain = 0
KDC1 201547Z 00001KT 02/M07 A3032 RMK A01 T00181065  RH  054%=      5-min Rain = 0
KDC1 201548Z 01001KT 02/M06 A3032 RMK A01 T00191064  RH  054%=      5-min Rain = 0
KDC1 201549Z 03001KT 02/M07 A3032 RMK A01 T00201065  RH  053%=      5-min Rain = 0
KDC1 201550Z 02000KT 02/M07 A3032 RMK A01 T00211069  RH  052%=      5-min Rain = 0
KDC1 201551Z 00001KT 02/M07 A3032 RMK A01 T00221069  RH  051%=      5-min Rain = 0
KDC1 201552Z 35000KT 02/M07 A3032 RMK A01 T00231065  RH  052%=      5-min Rain = 0
KDC1 201553Z 34001KT 02/M06 A3032 RMK A01 T00231064  RH  052%=      5-min Rain = 0
KDC1 201554Z 01000KT 02/M07 A3032 RMK A01 T00241066  RH  051%=      5-min Rain = 0
KDC1 201555Z 03000KT 03/M07 A3032 RMK A01 T00251067  RH  051%=      5-min Rain = 0
KDC1 201556Z 35000KT 03/M07 A3032 RMK A01 T00261067  RH  050%=      5-min Rain = 0
KDC1 201557Z 35000KT 03/M07 A3032 RMK A01 T00281066  RH  050%=      5-min Rain = 0
KDC1 201558Z 00000KT 03/M07 A3032 RMK A01 T00301065  RH  050%=      5-min Rain = 0
KDC1 201559Z 00000KT 03/M06 A3032 RMK A01 T00321064  RH  049%=      5-min Rain = 0
KDC1 201600Z 04000KT 03/M06 A3032 RMK A01 T00331063  RH  049%=      5-min Rain = 0
KDC1 201601Z 02001KT 03/M06 A3032 RMK A01 T00341063  RH  049%=      5-min Rain = 0
KDC1 201602Z 04000KT 04/M07 A3032 RMK A01 T00351065  RH  048%=      5-min Rain = 0
KDC1 201603Z 11000KT 04/M07 A3032 RMK A01 T00351066  RH  048%=      5-min Rain = 0
KDC1 201604Z 11001KT 04/M07 A3032 RMK A01 T00371065  RH  047%=      5-min Rain = 0
KDC1 201605Z 07001KT 04/M07 A3032 RMK A01 T00391065  RH  046%=      5-min Rain = 0
KDC1 201606Z 08000KT 04/M07 A3032 RMK A01 T00401065  RH  046%=      5-min Rain = 0
KDC1 201607Z 12000KT 04/M06 A3032 RMK A01 T00411064  RH  046%=      5-min Rain = 0
KDC1 201608Z 13000KT 04/M06 A3032 RMK A01 T00421064  RH  046%=      5-min Rain = 0
KDC1 201609Z 09000KT 04/M06 A3032 RMK A01 T00431064  RH  046%=      5-min Rain = 0
KDC1 201610Z 07001KT 04/M07 A3032 RMK A01 T00431065  RH  045%=      5-min Rain = 0
KDC1 201611Z 06001KT 04/M07 A3032 RMK A01 T00431065  RH  045%=      5-min Rain = 0
KDC1 201612Z 07002KT 04/M07 A3032 RMK A01 T00431065  RH  045%=      5-min Rain = 0
KDC1 201613Z 07001KT 04/M07 A3032 RMK A01 T00411065  RH  046%=      5-min Rain = 0
KDC1 201614Z 06001KT 04/M07 A3032 RMK A01 T00401065  RH  046%=      5-min Rain = 0
KDC1 201615Z 05000KT 04/M07 A3032 RMK A01 T00391065  RH  047%=      5-min Rain = 0
KDC1 201616Z 06001KT 04/M07 A3033 RMK A01 T00381065  RH  047%=      5-min Rain = 0
KDC1 201617Z 08001KT 04/M06 A3033 RMK A01 T00391062  RH  048%=      5-min Rain = 0
KDC1 201618Z 10002KT 04/M07 A3033 RMK A01 T00391065  RH  046%=      5-min Rain = 0
KDC1 201619Z 10002KT 04/M07 A3033 RMK A01 T00391066  RH  046%=      5-min Rain = 0
KDC1 201620Z 10002KT 04/M07 A3032 RMK A01 T00391066  RH  046%=      5-min Rain = 0
KDC1 201621Z 09002KT 04/M07 A3032 RMK A01 T00391067  RH  046%=      5-min Rain = 0
KDC1 201622Z 09002KT 04/M07 A3032 RMK A01 T00381068  RH  046%=      5-min Rain = 0
KDC1 201623Z 11002KT 04/M07 A3032 RMK A01 T00381066  RH  047%=      5-min Rain = 0
KDC1 201624Z 12002KT 04/M07 A3032 RMK A01 T00381065  RH  047%=      5-min Rain = 0
KDC1 201625Z 12003KT 04/M06 A3032 RMK A01 T00391064  RH  047%=      5-min Rain = 0
KDC1 201626Z 12002KT 04/M06 A3032 RMK A01 T00401063  RH  047%=      5-min Rain = 0
KDC1 201627Z 11002KT 04/M07 A3032 RMK A01 T00401065  RH  046%=      5-min Rain = 0
KDC1 201628Z 11002KT 04/M06 A3032 RMK A01 T00411063  RH  047%=      5-min Rain = 0
KDC1 201629Z 12002KT 04/M06 A3032 RMK A01 T00431062  RH  046%=      5-min Rain = 0
KDC1 201630Z 13002KT 04/M06 A3032 RMK A01 T00441063  RH  046%=      5-min Rain = 0
KDC1 201631Z 11002KT 04/M07 A3032 RMK A01 T00441065  RH  045%=      5-min Rain = 0
KDC1 201632Z 10002KT 05/M06 A3032 RMK A01 T00451063  RH  045%=      5-min Rain = 0
KDC1 201633Z 10003KT 05/M06 A3032 RMK A01 T00461061  RH  046%=      5-min Rain = 0
KDC1 201634Z 09002KT 05/M06 A3032 RMK A01 T00461063  RH  045%=      5-min Rain = 0
KDC1 201635Z 09002KT 05/M06 A3032 RMK A01 T00461062  RH  045%=      5-min Rain = 0
KDC1 201636Z 08003KT 05/M06 A3032 RMK A01 T00461062  RH  046%=      5-min Rain = 0
KDC1 201637Z 08002KT 05/M06 A3032 RMK A01 T00451062  RH  046%=      5-min Rain = 0
KDC1 201638Z 07003KT 05/M06 A3032 RMK A01 T00451061  RH  046%=      5-min Rain = 0
KDC1 201639Z 06002KT 04/M06 A3032 RMK A01 T00441061  RH  046%=      5-min Rain = 0
KDC1 201640Z 06002KT 04/M06 A3032 RMK A01 T00441062  RH  046%=      5-min Rain = 0
KDC1 201641Z 07002KT 04/M06 A3032 RMK A01 T00441060  RH  046%=      5-min Rain = 0
KDC1 201642Z 07002KT 05/M06 A3032 RMK A01 T00461059  RH  047%=      5-min Rain = 0
KDC1 201643Z 09001KT 05/M06 A3032 RMK A01 T00481058  RH  046%=      5-min Rain = 0
KDC1 201644Z 09002KT 05/M06 A3032 RMK A01 T00501057  RH  046%=      5-min Rain = 0
KDC1 201645Z 10002KT 05/M06 A3032 RMK A01 T00511058  RH  045%=      5-min Rain = 0
KDC1 201646Z 09003KT 05/M06 A3032 RMK A01 T00531058  RH  045%=      5-min Rain = 0
KDC1 201647Z 08003KT 05/M06 A3032 RMK A01 T00531060  RH  044%=      5-min Rain = 0
KDC1 201648Z 09004KT 05/M06 A3032 RMK A01 T00521063  RH  043%=      5-min Rain = 0
KDC1 201649Z 10003KT 05/M06 A3032 RMK A01 T00511063  RH  043%=      5-min Rain = 0
KDC1 201650Z 11003KT 05/M06 A3032 RMK A01 T00501062  RH  044%=      5-min Rain = 0
KDC1 201651Z 09004KT 05/M06 A3032 RMK A01 T00501060  RH  045%=      5-min Rain = 0
KDC1 201652Z 08003KT 05/M06 A3032 RMK A01 T00511059  RH  045%=      5-min Rain = 0
KDC1 201653Z 10003KT 05/M06 A3032 RMK A01 T00521059  RH  045%=      5-min Rain = 0
KDC1 201654Z 13003KT 05/M06 A3032 RMK A01 T00531056  RH  045%=      5-min Rain = 0
KDC1 201655Z 14002KT 05/M06 A3032 RMK A01 T00541055  RH  045%=      5-min Rain = 0
KDC1 201656Z 13003KT 06/M05 A3032 RMK A01 T00551054  RH  045%=      5-min Rain = 0
KDC1 201657Z 11003KT 06/M06 A3032 RMK A01 T00571055  RH  045%=      5-min Rain = 0
KDC1 201658Z 11003KT 06/M06 A3032 RMK A01 T00561057  RH  044%=      5-min Rain = 0
KDC1 201659Z 10002KT 06/M06 A3032 RMK A01 T00561057  RH  044%=      5-min Rain = 0
KDC1 201700Z 12004KT 06/M05 A3032 RMK A01 T00571054  RH  045%=      5-min Rain = 0
KDC1 201701Z 13003KT 06/M06 A3032 RMK A01 T00571057  RH  043%=      5-min Rain = 0
KDC1 201702Z 13004KT 06/M06 A3032 RMK A01 T00571057  RH  044%=      5-min Rain = 0
KDC1 201703Z 12004KT 06/M06 A3032 RMK A01 T00581057  RH  043%=      5-min Rain = 0
KDC1 201704Z 10003KT 06/M06 A3032 RMK A01 T00581057  RH  044%=      5-min Rain = 0
KDC1 201705Z 09003KT 06/M06 A3032 RMK A01 T00581056  RH  044%=      5-min Rain = 0
KDC1 201706Z 08003KT 06/M06 A3031 RMK A01 T00581056  RH  044%=      5-min Rain = 0
KDC1 201707Z 08003KT 06/M06 A3031 RMK A01 T00571055  RH  044%=      5-min Rain = 0
KDC1 201708Z 08002KT 06/M05 A3031 RMK A01 T00581053  RH  045%=      5-min Rain = 0
KDC1 201709Z 09002KT 06/M05 A3031 RMK A01 T00581053  RH  045%=      5-min Rain = 0
KDC1 201710Z 13002KT 06/M05 A3031 RMK A01 T00581053  RH  045%=      5-min Rain = 0
KDC1 201711Z 13001KT 06/M05 A3031 RMK A01 T00591052  RH  045%=      5-min Rain = 0
KDC1 201712Z 06002KT 06/M05 A3031 RMK A01 T00611051  RH  045%=      5-min Rain = 0
KDC1 201713Z 09003KT 06/M05 A3031 RMK A01 T00621049  RH  045%=      5-min Rain = 0
KDC1 201714Z 09003KT 06/M05 A3031 RMK A01 T00631050  RH  044%=      5-min Rain = 0
KDC1 201715Z 09002KT 06/M05 A3031 RMK A01 T00621051  RH  044%=      5-min Rain = 0
KDC1 201716Z 13003KT 06/M05 A3031 RMK A01 T00621051  RH  044%=      5-min Rain = 0
KDC1 201717Z 11003KT 06/M05 A3031 RMK A01 T00621052  RH  044%=      5-min Rain = 0
KDC1 201718Z 09003KT 06/M05 A3031 RMK A01 T00631053  RH  043%=      5-min Rain = 0
KDC1 201719Z 08003KT 06/M05 A3031 RMK A01 T00631053  RH  043%=      5-min Rain = 0
KDC1 201720Z 08003KT 06/M05 A3031 RMK A01 T00631052  RH  044%=      5-min Rain = 0
KDC1 201721Z 08003KT 06/M05 A3031 RMK A01 T00641053  RH  043%=      5-min Rain = 0
KDC1 201722Z 08003KT 06/M05 A3031 RMK A01 T00641053  RH  043%=      5-min Rain = 0
KDC1 201723Z 09001KT 06/M05 A3031 RMK A01 T00641053  RH  043%=      5-min Rain = 0
KDC1 201724Z 10003KT 06/M05 A3031 RMK A01 T00641053  RH  043%=      5-min Rain = 0
KDC1 201725Z 14003KT 07/M05 A3031 RMK A01 T00651050  RH  044%=      5-min Rain = 0
KDC1 201726Z 14003KT 07/M05 A3031 RMK A01 T00651050  RH  043%=      5-min Rain = 0
KDC1 201727Z 09003KT 07/M05 A3031 RMK A01 T00671050  RH  043%=      5-min Rain = 0
KDC1 201728Z 09002KT 07/M05 A3031 RMK A01 T00671051  RH  043%=      5-min Rain = 0
KDC1 201729Z 07001KT 07/M05 A3031 RMK A01 T00671050  RH  043%=      5-min Rain = 0
KDC1 201730Z 09002KT 07/M05 A3031 RMK A01 T00691048  RH  043%=      5-min Rain = 0
KDC1 201731Z 12002KT 07/M05 A3031 RMK A01 T00701049  RH  042%=      5-min Rain = 0
KDC1 201732Z 13003KT 07/M05 A3031 RMK A01 T00721048  RH  042%=      5-min Rain = 0
KDC1 201733Z 11003KT 07/M05 A3031 RMK A01 T00721050  RH  041%=      5-min Rain = 0
KDC1 201734Z 11002KT 07/M05 A3031 RMK A01 T00721054  RH  040%=      5-min Rain = 0
KDC1 201735Z 11002KT 07/M05 A3031 RMK A01 T00721054  RH  040%=      5-min Rain = 0
KDC1 201736Z 10000KT 07/M05 A3031 RMK A01 T00721052  RH  041%=      5-min Rain = 0
KDC1 201737Z 11001KT 07/M05 A3031 RMK A01 T00731051  RH  041%=      5-min Rain = 0
KDC1 201738Z 11002KT 08/M05 A3031 RMK A01 T00751050  RH  041%=      5-min Rain = 0
KDC1 201739Z 11002KT 08/M05 A3031 RMK A01 T00751051  RH  040%=      5-min Rain = 0
KDC1 201740Z 09001KT 08/M05 A3031 RMK A01 T00761054  RH  039%=      5-min Rain = 0
KDC1 201741Z 09002KT 08/M05 A3031 RMK A01 T00761054  RH  039%=      5-min Rain = 0
KDC1 201742Z 08002KT 08/M05 A3031 RMK A01 T00761054  RH  039%=      5-min Rain = 0
KDC1 201743Z 09001KT 08/M05 A3031 RMK A01 T00761053  RH  040%=      5-min Rain = 0
KDC1 201744Z 10001KT 08/M05 A3031 RMK A01 T00761053  RH  039%=      5-min Rain = 0
KDC1 201745Z 13001KT 08/M05 A3031 RMK A01 T00761053  RH  039%=      5-min Rain = 0
KDC1 201746Z 12001KT 08/M06 A3031 RMK A01 T00771056  RH  038%=      5-min Rain = 0
KDC1 201747Z 11001KT 08/M06 A3031 RMK A01 T00781055  RH  038%=      5-min Rain = 0
KDC1 201748Z 11002KT 08/M05 A3031 RMK A01 T00791050  RH  039%=      5-min Rain = 0
KDC1 201749Z 12001KT 08/M05 A3031 RMK A01 T00791050  RH  040%=      5-min Rain = 0
KDC1 201750Z 13000KT 08/M05 A3031 RMK A01 T00801050  RH  039%=      5-min Rain = 0
KDC1 201751Z 10001KT 08/M05 A3031 RMK A01 T00821052  RH  038%=      5-min Rain = 0
KDC1 201752Z 10002KT 08/M05 A3031 RMK A01 T00831053  RH  038%=      5-min Rain = 0
KDC1 201753Z 10002KT 08/M05 A3031 RMK A01 T00831053  RH  038%=      5-min Rain = 0
KDC1 201754Z 10002KT 08/M05 A3031 RMK A01 T00821054  RH  038%=      5-min Rain = 0
KDC1 201755Z 14000KT 08/M05 A3031 RMK A01 T00831053  RH  038%=      5-min Rain = 0
KDC1 201756Z 08002KT 08/M05 A3031 RMK A01 T00841053  RH  037%=      5-min Rain = 0
KDC1 201757Z 07002KT 09/M06 A303 RMK A01 T00851055  RH  037%=      5-min Rain = 0
KDC1 201758Z 06002KT 09/M06 A303 RMK A01 T00851056  RH  036%=      5-min Rain = 0
KDC1 201759Z 07003KT 08/M05 A303 RMK A01 T00841054  RH  037%=      5-min Rain = 0
KDC1 201800Z 08001KT 08/M06 A303 RMK A01 T00831055  RH  037%=      5-min Rain = 0
KDC1 201801Z 07001KT 08/M05 A303 RMK A01 T00831054  RH  038%=      5-min Rain = 0
KDC1 201802Z 07001KT 08/M05 A303 RMK A01 T00841052  RH  038%=      5-min Rain = 0
KDC1 201803Z 07002KT 09/M05 A303 RMK A01 T00861051  RH  038%=      5-min Rain = 0
KDC1 201804Z 10001KT 09/M05 A303 RMK A01 T00881050  RH  037%=      5-min Rain = 0
KDC1 201805Z 12002KT 09/M05 A303 RMK A01 T00911048  RH  037%=      5-min Rain = 0
KDC1 201806Z 13001KT 09/M05 A303 RMK A01 T00931051  RH  036%=      5-min Rain = 0
KDC1 201807Z 12001KT 09/M05 A303 RMK A01 T00941054  RH  035%=      5-min Rain = 0
KDC1 201808Z 08001KT 09/M05 A303 RMK A01 T00941054  RH  035%=      5-min Rain = 0
KDC1 201809Z 09002KT 10/M05 A3029 RMK A01 T00951053  RH  035%=      5-min Rain = 0
KDC1 201810Z 10003KT 09/M06 A3029 RMK A01 T00931055  RH  035%=      5-min Rain = 0
KDC1 201811Z 11002KT 09/M06 A3029 RMK A01 T00911057  RH  034%=      5-min Rain = 0
KDC1 201812Z 09003KT 09/M06 A3029 RMK A01 T00901058  RH  035%=      5-min Rain = 0
KDC1 201813Z 10003KT 09/M06 A3029 RMK A01 T00911057  RH  035%=      5-min Rain = 0
KDC1 201814Z 09001KT 09/M06 A3029 RMK A01 T00901055  RH  035%=      5-min Rain = 0
KDC1 201815Z 08001KT 09/M06 A3029 RMK A01 T00911056  RH  035%=      5-min Rain = 0
KDC1 201816Z 08002KT 09/M06 A3029 RMK A01 T00931057  RH  034%=      5-min Rain = 0
KDC1 201817Z 08003KT 09/M06 A3029 RMK A01 T00931059  RH  034%=      5-min Rain = 0
KDC1 201818Z 06003KT 09/M06 A3029 RMK A01 T00931059  RH  034%=      5-min Rain = 0
KDC1 201819Z 07002KT 09/M06 A3029 RMK A01 T00931061  RH  033%=      5-min Rain = 0
KDC1 201820Z 09003KT 09/M06 A3029 RMK A01 T00931059  RH  034%=      5-min Rain = 0
KDC1 201821Z 08002KT 09/M06 A3029 RMK A01 T00941058  RH  034%=      5-min Rain = 0
KDC1 201822Z 08004KT 10/M06 A3029 RMK A01 T00951055  RH  034%=      5-min Rain = 0
KDC1 201823Z 08003KT 10/M06 A3029 RMK A01 T00961058  RH  033%=      5-min Rain = 0
KDC1 201824Z 09003KT 10/M06 A3029 RMK A01 T00971057  RH  033%=      5-min Rain = 0
KDC1 201825Z 06002KT 10/M06 A3028 RMK A01 T00971057  RH  033%=      5-min Rain = 0
KDC1 201826Z 05002KT 10/M06 A3028 RMK A01 T00981059  RH  033%=      5-min Rain = 0
KDC1 201827Z 08002KT 10/M06 A3028 RMK A01 T00981059  RH  033%=      5-min Rain = 0
KDC1 201828Z 10002KT 10/M06 A3028 RMK A01 T00991056  RH  033%=      5-min Rain = 0
KDC1 201829Z 10002KT 10/M05 A3028 RMK A01 T01021054  RH  033%=      5-min Rain = 0
KDC1 201830Z 12003KT 10/M05 A3028 RMK A01 T01041052  RH  033%=      5-min Rain = 0
KDC1 201831Z 12003KT 11/M05 A3028 RMK A01 T01051053  RH  033%=      5-min Rain = 0
KDC1 201832Z 12003KT 11/M05 A3028 RMK A01 T01051054  RH  032%=      5-min Rain = 0
KDC1 201833Z 13003KT 11/M05 A3028 RMK A01 T01051052  RH  033%=      5-min Rain = 0
KDC1 201834Z 12002KT 11/M05 A3028 RMK A01 T01061053  RH  032%=      5-min Rain = 0
KDC1 201835Z 10003KT 11/M05 A3028 RMK A01 T01061052  RH  033%=      5-min Rain = 0
KDC1 201836Z 12004KT 11/M05 A3027 RMK A01 T01071051  RH  033%=      5-min Rain = 0
KDC1 201837Z 10004KT 11/M05 A3027 RMK A01 T01071051  RH  033%=      5-min Rain = 0
KDC1 201838Z 11003KT 11/M05 A3027 RMK A01 T01071052  RH  032%=      5-min Rain = 0
KDC1 201839Z 10004KT 11/M05 A3027 RMK A01 T01081051  RH  032%=      5-min Rain = 0
KDC1 201840Z 12003KT 11/M05 A3027 RMK A01 T01091049  RH  033%=      5-min Rain = 0
KDC1 201841Z 12003KT 11/M05 A3027 RMK A01 T01101050  RH  032%=      5-min Rain = 0
KDC1 201842Z 11003KT 11/M05 A3027 RMK A01 T01101052  RH  032%=      5-min Rain = 0
KDC1 201843Z 11002KT 11/M05 A3027 RMK A01 T01101052  RH  032%=      5-min Rain = 0
KDC1 201844Z 10003KT 11/M05 A3027 RMK A01 T01101050  RH  032%=      5-min Rain = 0
KDC1 201845Z 11003KT 11/M05 A3027 RMK A01 T01111051  RH  032%=      5-min Rain = 0
KDC1 201846Z 10002KT 11/M05 A3027 RMK A01 T01111050  RH  032%=      5-min Rain = 0
KDC1 201847Z 11003KT 11/M05 A3026 RMK A01 T01111051  RH  032%=      5-min Rain = 0
KDC1 201848Z 10003KT 11/M05 A3026 RMK A01 T01111051  RH  032%=      5-min Rain = 0
KDC1 201849Z 10003KT 11/M05 A3026 RMK A01 T01101052  RH  031%=      5-min Rain = 0
KDC1 201850Z 10003KT 11/M05 A3026 RMK A01 T01111051  RH  032%=      5-min Rain = 0
KDC1 201851Z 09003KT 11/M05 A3026 RMK A01 T01131049  RH  032%=      5-min Rain = 0
KDC1 201852Z 11002KT 11/M05 A3026 RMK A01 T01131051  RH  031%=      5-min Rain = 0
KDC1 201853Z 13003KT 11/M05 A3026 RMK A01 T01131046  RH  033%=      5-min Rain = 0
KDC1 201854Z 12003KT 11/M05 A3026 RMK A01 T01141048  RH  032%=      5-min Rain = 0
KDC1 201855Z 11003KT 12/M05 A3026 RMK A01 T01151046  RH  032%=      5-min Rain = 0
KDC1 201856Z 13004KT 12/M04 A3026 RMK A01 T01161044  RH  032%=      5-min Rain = 0
KDC1 201857Z 14004KT 12/M04 A3026 RMK A01 T01161041  RH  033%=      5-min Rain = 0
KDC1 201858Z 14003KT 12/M05 A3025 RMK A01 T01181047  RH  031%=      5-min Rain = 0
KDC1 201859Z 14004KT 12/M05 A3025 RMK A01 T01191051  RH  030%=      5-min Rain = 0
KDC1 201900Z 12003KT 12/M05 A3025 RMK A01 T01181052  RH  030%=      5-min Rain = 0
KDC1 201901Z 13002KT 12/M05 A3025 RMK A01 T01181051  RH  030%=      5-min Rain = 0
KDC1 201902Z 12003KT 12/M05 A3025 RMK A01 T01201048  RH  031%=      5-min Rain = 0
KDC1 201903Z 12003KT 12/M05 A3025 RMK A01 T01231048  RH  030%=      5-min Rain = 0
KDC1 201904Z 13003KT 13/M05 A3025 RMK A01 T01251047  RH  030%=      5-min Rain = 0
KDC1 201905Z 14004KT 13/M05 A3025 RMK A01 T01271048  RH  029%=      5-min Rain = 0
KDC1 201906Z 13003KT 13/M06 A3025 RMK A01 T01281055  RH  027%=      5-min Rain = 0
KDC1 201907Z 12003KT 13/M05 A3025 RMK A01 T01281053  RH  028%=      5-min Rain = 0
KDC1 201908Z 10004KT 13/M05 A3025 RMK A01 T01271049  RH  029%=      5-min Rain = 0
KDC1 201909Z 09003KT 13/M05 A3025 RMK A01 T01261047  RH  030%=      5-min Rain = 0
KDC1 201910Z 11004KT 13/M05 A3024 RMK A01 T01251045  RH  030%=      5-min Rain = 0
KDC1 201911Z 12005KT 13/M04 A3024 RMK A01 T01271042  RH  031%=      5-min Rain = 0
KDC1 201912Z 11003KT 13/M05 A3024 RMK A01 T01291048  RH  029%=      5-min Rain = 0
KDC1 201913Z 10004KT 13/M05 A3024 RMK A01 T01291048  RH  029%=      5-min Rain = 0
KDC1 201914Z 10005KT 13/M05 A3024 RMK A01 T01301046  RH  029%=      5-min Rain = 0
KDC1 201915Z 12004KT 13/M04 A3024 RMK A01 T01301042  RH  030%=      5-min Rain = 0
KDC1 201916Z 10004KT 13/M04 A3024 RMK A01 T01301037  RH  031%=      5-min Rain = 0
KDC1 201917Z 10004KT 13/M04 A3024 RMK A01 T01311041  RH  030%=      5-min Rain = 0
KDC1 201918Z 09005KT 13/M04 A3024 RMK A01 T01311043  RH  030%=      5-min Rain = 0
KDC1 201919Z 09005KT 13/M05 A3024 RMK A01 T01311049  RH  028%=      5-min Rain = 0
KDC1 201920Z 10004KT 13/M05 A3024 RMK A01 T01311050  RH  028%=      5-min Rain = 0
KDC1 201921Z 10004KT 13/M06 A3024 RMK A01 T01321055  RH  027%=      5-min Rain = 0
KDC1 201922Z 10003KT 13/M06 A3024 RMK A01 T01321058  RH  026%=      5-min Rain = 0
KDC1 201923Z 12003KT 13/M05 A3023 RMK A01 T01331053  RH  027%=      5-min Rain = 0
KDC1 201924Z 11003KT 13/M05 A3023 RMK A01 T01341053  RH  027%=      5-min Rain = 0
KDC1 201925Z 11004KT 13/M05 A3023 RMK A01 T01341051  RH  027%=      5-min Rain = 0
KDC1 201926Z 12003KT 13/M05 A3023 RMK A01 T01341047  RH  028%=      5-min Rain = 0
KDC1 201927Z 12003KT 14/M05 A3023 RMK A01 T01351049  RH  028%=      5-min Rain = 0
KDC1 201928Z 12003KT 14/M05 A3023 RMK A01 T01361049  RH  027%=      5-min Rain = 0
KDC1 201929Z 10003KT 14/M05 A3023 RMK A01 T01371045  RH  028%=      5-min Rain = 0
KDC1 201930Z 10004KT 14/M05 A3023 RMK A01 T01381045  RH  028%=      5-min Rain = 0
KDC1 201931Z 10004KT 14/M05 A3023 RMK A01 T01391048  RH  027%=      5-min Rain = 0
KDC1 201932Z 09003KT 14/M05 A3023 RMK A01 T01401049  RH  027%=      5-min Rain = 0
KDC1 201933Z 07002KT 14/M05 A3023 RMK A01 T01411050  RH  026%=      5-min Rain = 0
KDC1 201934Z 06003KT 14/M05 A3023 RMK A01 T01411052  RH  026%=      5-min Rain = 0
KDC1 201935Z 08004KT 14/M05 A3023 RMK A01 T01411054  RH  026%=      5-min Rain = 0
KDC1 201936Z 09003KT 14/M06 A3023 RMK A01 T01401055  RH  026%=      5-min Rain = 0
KDC1 201937Z 08004KT 14/M05 A3022 RMK A01 T01391052  RH  026%=      5-min Rain = 0
KDC1 201938Z 12002KT 14/M05 A3022 RMK A01 T01411053  RH  026%=      5-min Rain = 0
KDC1 201939Z 14000KT 14/M05 A3022 RMK A01 T01431054  RH  025%=      5-min Rain = 0
KDC1 201940Z 21000KT 14/M06 A3022 RMK A01 T01441055  RH  025%=      5-min Rain = 0
KDC1 201941Z 04001KT 15/M06 A3022 RMK A01 T01451055  RH  025%=      5-min Rain = 0
KDC1 201942Z 04002KT 15/M05 A3022 RMK A01 T01461054  RH  025%=      5-min Rain = 0
KDC1 201943Z 11001KT 15/M05 A3022 RMK A01 T01461054  RH  025%=      5-min Rain = 0
KDC1 201944Z 14003KT 15/M05 A3022 RMK A01 T01471053  RH  025%=      5-min Rain = 0
KDC1 201945Z 16003KT 15/M05 A3022 RMK A01 T01491053  RH  024%=      5-min Rain = 0
KDC1 201946Z 18002KT 15/M05 A3022 RMK A01 T01501054  RH  024%=      5-min Rain = 0
KDC1 201947Z 13001KT 15/M06 A3021 RMK A01 T01511055  RH  024%=      5-min Rain = 0
KDC1 201948Z 13004KT 15/M05 A3021 RMK A01 T01521053  RH  024%=      5-min Rain = 0
KDC1 201949Z 13003KT 15/M05 A3021 RMK A01 T01521054  RH  024%=      5-min Rain = 0
KDC1 201950Z 11003KT 15/M06 A3021 RMK A01 T01511058  RH  023%=      5-min Rain = 0
KDC1 201951Z 10001KT 15/M06 A3021 RMK A01 T01501058  RH  023%=      5-min Rain = 0
KDC1 201952Z 14002KT 15/M06 A3021 RMK A01 T01491057  RH  024%=      5-min Rain = 0
KDC1 201953Z 16002KT 15/M06 A3021 RMK A01 T01501058  RH  023%=      5-min Rain = 0
KDC1 201954Z 16002KT 15/M06 A3021 RMK A01 T01511060  RH  023%=      5-min Rain = 0
KDC1 201955Z 10002KT 15/M06 A3021 RMK A01 T01521058  RH  023%=      5-min Rain = 0
KDC1 201956Z 08003KT 15/M06 A3021 RMK A01 T01521057  RH  023%=      5-min Rain = 0
KDC1 201957Z 04001KT 15/M06 A3021 RMK A01 T01511060  RH  023%=      5-min Rain = 0
KDC1 201958Z 04001KT 15/M06 A302 RMK A01 T01501059  RH  023%=      5-min Rain = 0
KDC1 201959Z 09002KT 15/M06 A302 RMK A01 T01501058  RH  023%=      5-min Rain = 0
KDC1 202000Z 10004KT 15/M06 A302 RMK A01 T01511059  RH  023%=      5-min Rain = 0
KDC1 202001Z 10003KT 15/M06 A302 RMK A01 T01521060  RH  023%=      5-min Rain = 0
KDC1 202002Z 09003KT 15/M06 A302 RMK A01 T01521060  RH  023%=      5-min Rain = 0
KDC1 202003Z 06002KT 15/M06 A302 RMK A01 T01511061  RH  023%=      5-min Rain = 0
KDC1 202004Z 05003KT 15/M06 A302 RMK A01 T01531061  RH  022%=      5-min Rain = 0
KDC1 202005Z 07003KT 15/M06 A302 RMK A01 T01541061  RH  022%=      5-min Rain = 0
KDC1 202006Z 10003KT 16/M06 A302 RMK A01 T01551060  RH  022%=      5-min Rain = 0
KDC1 202007Z 10002KT 16/M06 A302 RMK A01 T01561060  RH  022%=      5-min Rain = 0
KDC1 202008Z 08002KT 16/M06 A302 RMK A01 T01561063  RH  022%=      5-min Rain = 0
KDC1 202009Z 10004KT 16/M06 A302 RMK A01 T01561063  RH  021%=      5-min Rain = 0
KDC1 202010Z 11003KT 16/M07 A302 RMK A01 T01561065  RH  021%=      5-min Rain = 0
KDC1 202011Z 09003KT 16/M07 A302 RMK A01 T01561066  RH  021%=      5-min Rain = 0
KDC1 202012Z 07004KT 16/M07 A302 RMK A01 T01571065  RH  021%=      5-min Rain = 0
KDC1 202013Z 10002KT 16/M07 A3019 RMK A01 T01561066  RH  021%=      5-min Rain = 0
KDC1 202014Z 09002KT 16/M07 A3019 RMK A01 T01561065  RH  021%=      5-min Rain = 0
KDC1 202015Z 05002KT 16/M06 A3019 RMK A01 T01571063  RH  021%=      5-min Rain = 0
KDC1 202016Z 05002KT 16/M06 A3019 RMK A01 T01591062  RH  021%=      5-min Rain = 0
KDC1 202017Z 06005KT 16/M06 A3019 RMK A01 T01601057  RH  022%=      5-min Rain = 0
KDC1 202018Z 09004KT 16/M06 A3019 RMK A01 T01611056  RH  022%=      5-min Rain = 0
KDC1 202019Z 09005KT 16/M06 A3019 RMK A01 T01611056  RH  022%=      5-min Rain = 0
KDC1 202020Z 07004KT 16/M06 A3019 RMK A01 T01611057  RH  022%=      5-min Rain = 0
KDC1 202021Z 06003KT 16/M06 A3019 RMK A01 T01611058  RH  022%=      5-min Rain = 0
KDC1 202022Z 08004KT 16/M06 A3019 RMK A01 T01601062  RH  021%=      5-min Rain = 0
KDC1 202023Z 08003KT 16/M06 A3019 RMK A01 T01601060  RH  022%=      5-min Rain = 0
KDC1 202024Z 10005KT 16/M06 A3019 RMK A01 T01601059  RH  022%=      5-min Rain = 0
KDC1 202025Z 09004KT 16/M06 A3019 RMK A01 T01601059  RH  022%=      5-min Rain = 0
KDC1 202026Z 08004KT 16/M06 A3019 RMK A01 T01601059  RH  022%=      5-min Rain = 0
KDC1 202027Z 08006KT 16/M06 A3018 RMK A01 T01591060  RH  022%=      5-min Rain = 0
KDC1 202028Z 08004KT 16/M06 A3018 RMK A01 T01591062  RH  021%=      5-min Rain = 0
KDC1 202029Z 05004KT 16/M06 A3018 RMK A01 T01591059  RH  022%=      5-min Rain = 0
KDC1 202030Z 09005KT 16/M06 A3018 RMK A01 T01591057  RH  022%=      5-min Rain = 0
KDC1 202031Z 10005KT 16/M06 A3018 RMK A01 T01611060  RH  021%=      5-min Rain = 0
KDC1 202032Z 08004KT 16/M06 A3018 RMK A01 T01601060  RH  022%=      5-min Rain = 0
KDC1 202033Z 08004KT 16/M06 A3018 RMK A01 T01601060  RH  022%=      5-min Rain = 0
KDC1 202034Z 09004KT 16/M06 A3018 RMK A01 T01601059  RH  022%=      5-min Rain = 0
KDC1 202035Z 07004KT 16/M06 A3018 RMK A01 T01611056  RH  022%=      5-min Rain = 0
KDC1 202036Z 07005KT 16/M06 A3018 RMK A01 T01621056  RH  022%=      5-min Rain = 0
KDC1 202037Z 07006KT 16/M06 A3018 RMK A01 T01621058  RH  022%=      5-min Rain = 0
KDC1 202038Z 08005KT 16/M06 A3017 RMK A01 T01611057  RH  022%=      5-min Rain = 0
KDC1 202039Z 09005KT 16/M06 A3017 RMK A01 T01631059  RH  021%=      5-min Rain = 0
KDC1 202040Z 08005KT 16/M06 A3017 RMK A01 T01621059  RH  021%=      5-min Rain = 0
KDC1 202041Z 09004KT 16/M06 A3017 RMK A01 T01631057  RH  022%=      5-min Rain = 0
KDC1 202042Z 07004KT 16/M06 A3017 RMK A01 T01631057  RH  022%=      5-min Rain = 0
KDC1 202043Z 08004KT 16/M06 A3017 RMK A01 T01631059  RH  021%=      5-min Rain = 0
KDC1 202044Z 09004KT 16/M06 A3017 RMK A01 T01641057  RH  021%=      5-min Rain = 0
KDC1 202045Z 08003KT 16/M06 A3017 RMK A01 T01641060  RH  021%=      5-min Rain = 0
KDC1 202046Z 06003KT 16/M06 A3017 RMK A01 T01621061  RH  021%=      5-min Rain = 0
KDC1 202047Z 06005KT 16/M06 A3017 RMK A01 T01621059  RH  021%=      5-min Rain = 0
KDC1 202048Z 08004KT 16/M06 A3017 RMK A01 T01621058  RH  022%=      5-min Rain = 0
KDC1 202049Z 09004KT 16/M06 A3017 RMK A01 T01621062  RH  021%=      5-min Rain = 0
KDC1 202050Z 10004KT 16/M06 A3017 RMK A01 T01621063  RH  021%=      5-min Rain = 0
KDC1 202051Z 07004KT 16/M06 A3017 RMK A01 T01621061  RH  021%=      5-min Rain = 0
KDC1 202052Z 06004KT 16/M06 A3017 RMK A01 T01631060  RH  021%=      5-min Rain = 0
KDC1 202053Z 07004KT 16/M06 A3017 RMK A01 T01621062  RH  021%=      5-min Rain = 0
KDC1 202054Z 08003KT 16/M06 A3017 RMK A01 T01611060  RH  021%=      5-min Rain = 0
KDC1 202055Z 06004KT 16/M06 A3017 RMK A01 T01641057  RH  022%=      5-min Rain = 0
KDC1 202056Z 05005KT 16/M06 A3017 RMK A01 T01641059  RH  021%=      5-min Rain = 0
KDC1 202057Z 05004KT 16/M06 A3017 RMK A01 T01631057  RH  022%=      5-min Rain = 0
KDC1 202058Z 05004KT 16/M06 A3017 RMK A01 T01631057  RH  022%=      5-min Rain = 0
KDC1 202059Z 05004KT 16/M06 A3016 RMK A01 T01631059  RH  021%=      5-min Rain = 0
KDC1 202100Z 08004KT 16/M06 A3016 RMK A01 T01641059  RH  021%=      5-min Rain = 0
KDC1 202101Z 10003KT 17/M06 A3016 RMK A01 T01651058  RH  021%=      5-min Rain = 0
KDC1 202102Z 09002KT 17/M06 A3016 RMK A01 T01661061  RH  021%=      5-min Rain = 0
KDC1 202103Z 10002KT 17/M06 A3016 RMK A01 T01671060  RH  021%=      5-min Rain = 0
KDC1 202104Z 09004KT 17/M06 A3016 RMK A01 T01681060  RH  021%=      5-min Rain = 0
KDC1 202105Z 08004KT 17/M06 A3016 RMK A01 T01681062  RH  020%=      5-min Rain = 0
KDC1 202106Z 09004KT 17/M06 A3016 RMK A01 T01671062  RH  020%=      5-min Rain = 0
KDC1 202107Z 08004KT 17/M06 A3016 RMK A01 T01671062  RH  020%=      5-min Rain = 0
KDC1 202108Z 07004KT 17/M06 A3016 RMK A01 T01681060  RH  021%=      5-min Rain = 0
KDC1 202109Z 08004KT 17/M06 A3016 RMK A01 T01701058  RH  021%=      5-min Rain = 0
KDC1 202110Z 07004KT 17/M06 A3016 RMK A01 T01701061  RH  020%=      5-min Rain = 0
KDC1 202111Z 08003KT 17/M06 A3016 RMK A01 T01701059  RH  020%=      5-min Rain = 0
KDC1 202112Z 08002KT 17/M06 A3016 RMK A01 T01701059  RH  020%=      5-min Rain = 0
KDC1 202113Z 07003KT 17/M06 A3016 RMK A01 T01681061  RH  020%=      5-min Rain = 0
KDC1 202114Z 07002KT 17/M06 A3016 RMK A01 T01671061  RH  020%=      5-min Rain = 0
KDC1 202115Z 03003KT 17/M06 A3016 RMK A01 T01671057  RH  021%=      5-min Rain = 0
KDC1 202116Z 07005KT 17/M06 A3016 RMK A01 T01691057  RH  021%=      5-min Rain = 0
KDC1 202117Z 08004KT 17/M06 A3016 RMK A01 T01701059  RH  020%=      5-min Rain = 0
KDC1 202118Z 09003KT 17/M06 A3016 RMK A01 T01691060  RH  020%=      5-min Rain = 0
KDC1 202119Z 09003KT 17/M06 A3015 RMK A01 T01681061  RH  020%=      5-min Rain = 0
KDC1 202120Z 10004KT 17/M06 A3015 RMK A01 T01681062  RH  020%=      5-min Rain = 0
KDC1 202121Z 09004KT 17/M06 A3015 RMK A01 T01691060  RH  020%=      5-min Rain = 0
KDC1 202122Z 07006KT 17/M06 A3015 RMK A01 T01691061  RH  020%=      5-min Rain = 0
KDC1 202123Z 06005KT 17/M06 A3015 RMK A01 T01691059  RH  020%=      5-min Rain = 0
KDC1 202124Z 05006KT 17/M06 A3015 RMK A01 T01681058  RH  021%=      5-min Rain = 0
KDC1 202125Z 05005KT 17/M06 A3015 RMK A01 T01681059  RH  021%=      5-min Rain = 0
KDC1 202126Z 06005KT 17/M06 A3015 RMK A01 T01691057  RH  021%=      5-min Rain = 0
KDC1 202127Z 06005KT 17/M06 A3015 RMK A01 T01701057  RH  021%=      5-min Rain = 0
KDC1 202128Z 05005KT 17/M06 A3015 RMK A01 T01691059  RH  020%=      5-min Rain = 0
KDC1 202129Z 05005KT 17/M06 A3015 RMK A01 T01681061  RH  020%=      5-min Rain = 0
KDC1 202130Z 05004KT 17/M06 A3015 RMK A01 T01661062  RH  020%=      5-min Rain = 0
KDC1 202131Z 08004KT 17/M06 A3015 RMK A01 T01651060  RH  021%=      5-min Rain = 0
KDC1 202132Z 09005KT 17/M06 A3015 RMK A01 T01661059  RH  021%=      5-min Rain = 0
KDC1 202133Z 10005KT 17/M06 A3015 RMK A01 T01671061  RH  020%=      5-min Rain = 0
KDC1 202134Z 10005KT 17/M07 A3015 RMK A01 T01671065  RH  020%=      5-min Rain = 0
KDC1 202135Z 10004KT 17/M07 A3015 RMK A01 T01671065  RH  020%=      5-min Rain = 0
KDC1 202136Z 10004KT 17/M06 A3015 RMK A01 T01671063  RH  020%=      5-min Rain = 0
KDC1 202137Z 10004KT 17/M06 A3015 RMK A01 T01671062  RH  020%=      5-min Rain = 0
KDC1 202138Z 09003KT 17/M06 A3015 RMK A01 T01671063  RH  020%=      5-min Rain = 0
KDC1 202139Z 08003KT 17/M06 A3015 RMK A01 T01671063  RH  020%=      5-min Rain = 0
KDC1 202140Z 09005KT 17/M06 A3015 RMK A01 T01671063  RH  020%=      5-min Rain = 0
KDC1 202141Z 08003KT 17/M07 A3015 RMK A01 T01671065  RH  020%=      5-min Rain = 0
KDC1 202142Z 09004KT 17/M06 A3015 RMK A01 T01671063  RH  020%=      5-min Rain = 0
KDC1 202143Z 07004KT 17/M06 A3015 RMK A01 T01681059  RH  021%=      5-min Rain = 0
KDC1 202144Z 07004KT 17/M06 A3015 RMK A01 T01691059  RH  020%=      5-min Rain = 0
KDC1 202145Z 06005KT 17/M06 A3015 RMK A01 T01691059  RH  020%=      5-min Rain = 0
KDC1 202146Z 07004KT 17/M06 A3015 RMK A01 T01691059  RH  021%=      5-min Rain = 0
KDC1 202147Z 09004KT 17/M06 A3015 RMK A01 T01691059  RH  020%=      5-min Rain = 0
KDC1 202148Z 08005KT 17/M06 A3015 RMK A01 T01701058  RH  021%=      5-min Rain = 0
KDC1 202149Z 08004KT 17/M06 A3015 RMK A01 T01701058  RH  020%=      5-min Rain = 0
KDC1 202150Z 10004KT 17/M06 A3015 RMK A01 T01701062  RH  020%=      5-min Rain = 0
KDC1 202151Z 08003KT 17/M06 A3015 RMK A01 T01701061  RH  020%=      5-min Rain = 0
KDC1 202152Z 09005KT 17/M06 A3015 RMK A01 T01711059  RH  020%=      5-min Rain = 0
KDC1 202153Z 10005KT 17/M06 A3015 RMK A01 T01711064  RH  019%=      5-min Rain = 0
KDC1 202154Z 10004KT 17/M06 A3015 RMK A01 T01701063  RH  020%=      5-min Rain = 0
KDC1 202155Z 10004KT 17/M07 A3015 RMK A01 T01701065  RH  019%=      5-min Rain = 0
KDC1 202156Z 09003KT 17/M07 A3015 RMK A01 T01691066  RH  019%=      5-min Rain = 0
KDC1 202157Z 09002KT 17/M07 A3015 RMK A01 T01701066  RH  019%=      5-min Rain = 0
KDC1 202158Z 11005KT 17/M07 A3015 RMK A01 T01701066  RH  019%=      5-min Rain = 0
KDC1 202159Z 10002KT 17/M07 A3015 RMK A01 T01701068  RH  019%=      5-min Rain = 0
KDC1 202200Z 12002KT 17/M07 A3015 RMK A01 T01701065  RH  019%=      5-min Rain = 0
KDC1 202201Z 11004KT 17/M06 A3015 RMK A01 T01701062  RH  020%=      5-min Rain = 0
KDC1 202202Z 11004KT 17/M06 A3015 RMK A01 T01721063  RH  020%=      5-min Rain = 0
KDC1 202203Z 11005KT 17/M06 A3015 RMK A01 T01731058  RH  020%=      5-min Rain = 0
KDC1 202204Z 11004KT 17/M06 A3015 RMK A01 T01731063  RH  019%=      5-min Rain = 0
KDC1 202205Z 11004KT 17/M06 A3015 RMK A01 T01731060  RH  020%=      5-min Rain = 0
KDC1 202206Z 11004KT 17/M05 A3015 RMK A01 T01731054  RH  021%=      5-min Rain = 0
KDC1 202207Z 12005KT 17/M06 A3015 RMK A01 T01741056  RH  020%=      5-min Rain = 0
KDC1 202208Z 13004KT 17/M05 A3015 RMK A01 T01741054  RH  021%=      5-min Rain = 0
KDC1 202209Z 12004KT 17/M06 A3015 RMK A01 T01741058  RH  020%=      5-min Rain = 0
KDC1 202210Z 12004KT 17/M05 A3015 RMK A01 T01731050  RH  021%=      5-min Rain = 0
KDC1 202211Z 12005KT 17/M05 A3015 RMK A01 T01741047  RH  022%=      5-min Rain = 0
KDC1 202212Z 11004KT 18/M06 A3015 RMK A01 T01751059  RH  020%=      5-min Rain = 0
KDC1 202213Z 12003KT 18/M06 A3015 RMK A01 T01751056  RH  020%=      5-min Rain = 0
KDC1 202214Z 12004KT 18/M05 A3015 RMK A01 T01751054  RH  020%=      5-min Rain = 0
KDC1 202215Z 12004KT 18/M06 A3015 RMK A01 T01751059  RH  020%=      5-min Rain = 0
KDC1 202216Z 11004KT 17/M06 A3015 RMK A01 T01741063  RH  019%=      5-min Rain = 0
KDC1 202217Z 10004KT 17/M07 A3015 RMK A01 T01741066  RH  019%=      5-min Rain = 0
KDC1 202218Z 10004KT 17/M06 A3014 RMK A01 T01731062  RH  020%=      5-min Rain = 0
KDC1 202219Z 11004KT 17/M06 A3014 RMK A01 T01731058  RH  020%=      5-min Rain = 0
KDC1 202220Z 11005KT 17/M05 A3014 RMK A01 T01741054  RH  021%=      5-min Rain = 0
KDC1 202221Z 11004KT 18/M06 A3014 RMK A01 T01751055  RH  020%=      5-min Rain = 0
KDC1 202222Z 10003KT 18/M06 A3014 RMK A01 T01751055  RH  020%=      5-min Rain = 0
KDC1 202223Z 11005KT 18/M06 A3014 RMK A01 T01761057  RH  020%=      5-min Rain = 0
KDC1 202224Z 11006KT 18/M05 A3014 RMK A01 T01771051  RH  021%=      5-min Rain = 0
KDC1 202225Z 11005KT 18/M05 A3014 RMK A01 T01771053  RH  020%=      5-min Rain = 0
KDC1 202226Z 11005KT 18/M06 A3014 RMK A01 T01771062  RH  019%=      5-min Rain = 0
KDC1 202227Z 10006KT 18/M06 A3014 RMK A01 T01761062  RH  019%=      5-min Rain = 0
KDC1 202228Z 11006KT 18/M06 A3014 RMK A01 T01761057  RH  020%=      5-min Rain = 0
KDC1 202229Z 11005KT 18/M05 A3014 RMK A01 T01761051  RH  021%=      5-min Rain = 0
KDC1 202230Z 11006KT 18/M04 A3014 RMK A01 T01751044  RH  022%=      5-min Rain = 0
KDC1 202231Z 10005KT 18/M06 A3014 RMK A01 T01761059  RH  020%=      5-min Rain = 0
KDC1 202232Z 10005KT 18/M07 A3014 RMK A01 T01751067  RH  018%=      5-min Rain = 0
KDC1 202233Z 11005KT 18/M07 A3014 RMK A01 T01751067  RH  019%=      5-min Rain = 0
KDC1 202234Z 11006KT 18/M06 A3014 RMK A01 T01751056  RH  020%=      5-min Rain = 0
KDC1 202235Z 11005KT 18/M06 A3014 RMK A01 T01751057  RH  020%=      5-min Rain = 0
KDC1 202236Z 11005KT 18/M06 A3014 RMK A01 T01751055  RH  020%=      5-min Rain = 0
KDC1 202237Z 11006KT 18/M05 A3014 RMK A01 T01751052  RH  021%=      5-min Rain = 0
KDC1 202238Z 11006KT 17/M06 A3014 RMK A01 T01741057  RH  020%=      5-min Rain = 0
KDC1 202239Z 11006KT 17/M05 A3014 RMK A01 T01741049  RH  021%=      5-min Rain = 0
KDC1 202240Z 11006KT 17/M04 A3014 RMK A01 T01741041  RH  023%=      5-min Rain = 0
KDC1 202241Z 11006KT 17/M04 A3013 RMK A01 T01731035  RH  024%=      5-min Rain = 0
KDC1 202242Z 12006KT 17/M03 A3013 RMK A01 T01721031  RH  025%=      5-min Rain = 0
KDC1 202243Z 11006KT 17/M03 A3013 RMK A01 T01711031  RH  025%=      5-min Rain = 0
KDC1 202244Z 11006KT 17/M03 A3013 RMK A01 T01701031  RH  025%=      5-min Rain = 0
KDC1 202245Z 10005KT 17/M05 A3013 RMK A01 T01701045  RH  023%=      5-min Rain = 0
KDC1 202246Z 10005KT 17/M05 A3013 RMK A01 T01701054  RH  021%=      5-min Rain = 0
KDC1 202247Z 10005KT 17/M06 A3013 RMK A01 T01711059  RH  020%=      5-min Rain = 0
KDC1 202248Z 11004KT 17/M05 A3013 RMK A01 T01711053  RH  021%=      5-min Rain = 0
KDC1 202249Z 11005KT 17/M04 A3013 RMK A01 T01721039  RH  023%=      5-min Rain = 0
KDC1 202250Z 11005KT 17/M03 A3013 RMK A01 T01711033  RH  025%=      5-min Rain = 0
KDC1 202251Z 11005KT 17/M03 A3013 RMK A01 T01701028  RH  026%=      5-min Rain = 0
KDC1 202252Z 11005KT 17/M03 A3013 RMK A01 T01691026  RH  026%=      5-min Rain = 0
KDC1 202253Z 12005KT 17/M03 A3013 RMK A01 T01681029  RH  026%=      5-min Rain = 0
KDC1 202254Z 11005KT 17/M02 A3013 RMK A01 T01691022  RH  027%=      5-min Rain = 0
KDC1 202255Z 11005KT 17/M02 A3013 RMK A01 T01691020  RH  027%=      5-min Rain = 0
KDC1 202256Z 11005KT 17/M02 A3013 RMK A01 T01691019  RH  028%=      5-min Rain = 0
KDC1 202257Z 11005KT 17/M01 A3013 RMK A01 T01681014  RH  029%=      5-min Rain = 0
KDC1 202258Z 11005KT 17/M02 A3013 RMK A01 T01681016  RH  028%=      5-min Rain = 0
KDC1 202259Z 11005KT 17/M02 A3013 RMK A01 T01681024  RH  027%=      5-min Rain = 0
KDC1 202300Z 11005KT 17/M03 A3013 RMK A01 T01691027  RH  026%=      5-min Rain = 0
KDC1 202301Z 11005KT 17/M03 A3013 RMK A01 T01691026  RH  026%=      5-min Rain = 0
KDC1 202302Z 11005KT 17/M02 A3013 RMK A01 T01691019  RH  028%=      5-min Rain = 0
KDC1 202303Z 11005KT 17/M02 A3013 RMK A01 T01681015  RH  029%=      5-min Rain = 0
KDC1 202304Z 11005KT 17/M01 A3013 RMK A01 T01671011  RH  030%=      5-min Rain = 0
KDC1 202305Z 11005KT 17/M01 A3013 RMK A01 T01661012  RH  030%=      5-min Rain = 0
KDC1 202306Z 11005KT 17/M01 A3013 RMK A01 T01651012  RH  030%=      5-min Rain = 0
KDC1 202307Z 11005KT 17/M01 A3013 RMK A01 T01651009  RH  030%=      5-min Rain = 0
KDC1 202308Z 11004KT 16/M01 A3013 RMK A01 T01641011  RH  030%=      5-min Rain = 0
KDC1 202309Z 11005KT 16/M02 A3013 RMK A01 T01641022  RH  028%=      5-min Rain = 0
KDC1 202310Z 11005KT 17/M03 A3013 RMK A01 T01651032  RH  026%=      5-min Rain = 0
KDC1 202311Z 11005KT 17/M03 A3013 RMK A01 T01661029  RH  026%=      5-min Rain = 0
KDC1 202312Z 11005KT 17/M03 A3013 RMK A01 T01661027  RH  027%=      5-min Rain = 0
KDC1 202313Z 11005KT 17/M02 A3013 RMK A01 T01661019  RH  028%=      5-min Rain = 0
KDC1 202314Z 11005KT 17/M01 A3013 RMK A01 T01651014  RH  029%=      5-min Rain = 0
KDC1 202315Z 11005KT 16/M01 A3013 RMK A01 T01631013  RH  030%=      5-min Rain = 0
KDC1 202316Z 11005KT 16/M01 A3013 RMK A01 T01621011  RH  031%=      5-min Rain = 0
KDC1 202317Z 11005KT 16/M01 A3012 RMK A01 T01611008  RH  032%=      5-min Rain = 0
KDC1 202318Z 11005KT 16/M00 A3012 RMK A01 T01591002  RH  033%=      5-min Rain = 0
KDC1 202319Z 11005KT 16/M00 A3012 RMK A01 T01581004  RH  033%=      5-min Rain = 0
KDC1 202320Z 11005KT 16/M01 A3012 RMK A01 T01571009  RH  032%=      5-min Rain = 0
KDC1 202321Z 11005KT 16/M01 A3012 RMK A01 T01581011  RH  031%=      5-min Rain = 0
KDC1 202322Z 11005KT 16/M01 A3012 RMK A01 T01591012  RH  031%=      5-min Rain = 0
KDC1 202323Z 11004KT 16/M01 A3012 RMK A01 T01591011  RH  031%=      5-min Rain = 0
KDC1 202324Z 11005KT 16/M02 A3012 RMK A01 T01591015  RH  030%=      5-min Rain = 0
KDC1 202325Z 11004KT 16/M02 A3012 RMK A01 T01601024  RH  028%=      5-min Rain = 0
KDC1 202326Z 10005KT 16/M03 A3012 RMK A01 T01611029  RH  027%=      5-min Rain = 0
KDC1 202327Z 10005KT 16/M02 A3012 RMK A01 T01621022  RH  028%=      5-min Rain = 0
KDC1 202328Z 10005KT 16/M02 A3012 RMK A01 T01621021  RH  028%=      5-min Rain = 0
KDC1 202329Z 10005KT 16/M03 A3012 RMK A01 T01631025  RH  028%=      5-min Rain = 0
KDC1 202330Z 10004KT 16/M03 A3012 RMK A01 T01631034  RH  026%=      5-min Rain = 0
KDC1 202331Z 09003KT 16/M03 A3012 RMK A01 T01641031  RH  026%=      5-min Rain = 0
KDC1 202332Z 09003KT 16/M03 A3012 RMK A01 T01641031  RH  026%=      5-min Rain = 0
KDC1 202333Z 09003KT 16/M03 A3012 RMK A01 T01641029  RH  026%=      5-min Rain = 0
KDC1 202334Z 10003KT 16/M01 A3012 RMK A01 T01641009  RH  031%=      5-min Rain = 0
KDC1 202335Z 10004KT 16/M01 A3012 RMK A01 T01611009  RH  031%=      5-min Rain = 0
KDC1 202336Z 10005KT 16/M02 A3012 RMK A01 T01591019  RH  029%=      5-min Rain = 0
KDC1 202337Z 10005KT 16/M03 A3012 RMK A01 T01591027  RH  028%=      5-min Rain = 0
KDC1 202338Z 10005KT 16/M03 A3012 RMK A01 T01581030  RH  027%=      5-min Rain = 0
KDC1 202339Z 11005KT 16/M04 A3012 RMK A01 T01581039  RH  026%=      5-min Rain = 0
KDC1 202340Z 11005KT 16/M04 A3012 RMK A01 T01581036  RH  026%=      5-min Rain = 0
KDC1 202341Z 11004KT 16/M02 A3012 RMK A01 T01571016  RH  031%=      5-min Rain = 0
KDC1 202342Z 12005KT 15/M01 A3012 RMK A01 T01531006  RH  034%=      5-min Rain = 0
KDC1 202343Z 12005KT 15/M01 A3012 RMK A01 T01481006  RH  035%=      5-min Rain = 0
KDC1 202344Z 12005KT 15/M00 A3012 RMK A01 T01451002  RH  036%=      5-min Rain = 0
KDC1 202345Z 13004KT 14/M01 A3012 RMK A01 T01431010  RH  035%=      5-min Rain = 0
KDC1 202346Z 14004KT 14/M01 A3011 RMK A01 T01431010  RH  035%=      5-min Rain = 0
KDC1 202347Z 14004KT 14/M01 A3011 RMK A01 T01421011  RH  035%=      5-min Rain = 0
KDC1 202348Z 14003KT 14/M01 A3011 RMK A01 T01411013  RH  035%=      5-min Rain = 0
KDC1 202349Z 15004KT 14/M02 A3011 RMK A01 T01411016  RH  034%=      5-min Rain = 0
KDC1 202350Z 17004KT 14/M01 A3011 RMK A01 T01401011  RH  035%=      5-min Rain = 0
KDC1 202351Z 18003KT 14/M01 A3011 RMK A01 T01401014  RH  035%=      5-min Rain = 0
KDC1 202352Z 18003KT 14/M02 A3011 RMK A01 T01391021  RH  033%=      5-min Rain = 0
KDC1 202353Z 18003KT 14/M03 A3011 RMK A01 T01401030  RH  031%=      5-min Rain = 0
KDC1 202354Z 19003KT 14/M04 A3011 RMK A01 T01421036  RH  029%=      5-min Rain = 0
KDC1 202355Z 20003KT 14/M04 A3011 RMK A01 T01441041  RH  028%=      5-min Rain = 0
KDC1 202356Z 19003KT 15/M05 A3011 RMK A01 T01461049  RH  026%=      5-min Rain = 0
KDC1 202357Z 19002KT 15/M05 A3011 RMK A01 T01471049  RH  026%=      5-min Rain = 0
KDC1 202358Z 19003KT 15/M05 A3011 RMK A01 T01471051  RH  025%=      5-min Rain = 0
KDC1 202359Z 19005KT 15/M07 A3011 RMK A01 T01481069  RH  022%=      5-min Rain = 0
KDC1 210000Z 19005KT 15/M07 A3011 RMK A01 T01501074  RH  021%=      5-min Rain = 0
KDC1 210001Z 19005KT 15/M08 A3011 RMK A01 T01521075  RH  020%=      5-min Rain = 0
KDC1 210002Z 19005KT 15/M08 A3011 RMK A01 T01521075  RH  020%=      5-min Rain = 0
KDC1 210003Z 20005KT 15/M08 A3011 RMK A01 T01521076  RH  020%=      5-min Rain = 0
KDC1 210004Z 19005KT 15/M08 A3011 RMK A01 T01521079  RH  020%=      5-min Rain = 0
KDC1 210005Z 20006KT 15/M08 A3011 RMK A01 T01521080  RH  019%=      5-min Rain = 0
KDC1 210006Z 20006KT 15/M08 A3011 RMK A01 T01521081  RH  019%=      5-min Rain = 0
KDC1 210007Z 20005KT 15/M08 A3011 RMK A01 T01531083  RH  019%=      5-min Rain = 0
KDC1 210008Z 20005KT 15/M08 A3011 RMK A01 T01531083  RH  019%=      5-min Rain = 0
KDC1 210009Z 20006KT 15/M09 A3011 RMK A01 T01531087  RH  018%=      5-min Rain = 0
KDC1 210010Z 21006KT 15/M09 A3011 RMK A01 T01541088  RH  018%=      5-min Rain = 0
KDC1 210011Z 21006KT 15/M09 A3011 RMK A01 T01541088  RH  018%=      5-min Rain = 0
KDC1 210012Z 20005KT 16/M09 A3011 RMK A01 T01551088  RH  018%=      5-min Rain = 0
KDC1 210013Z 22005KT 16/M09 A3011 RMK A01 T01551088  RH  018%=      5-min Rain = 0
KDC1 210014Z 21005KT 16/M09 A3011 RMK A01 T01551088  RH  018%=      5-min Rain = 0
KDC1 210015Z 22004KT 15/M09 A3011 RMK A01 T01541087  RH  018%=      5-min Rain = 0
KDC1 210016Z 22003KT 15/M09 A3011 RMK A01 T01531087  RH  018%=      5-min Rain = 0
KDC1 210017Z 22005KT 15/M09 A3011 RMK A01 T01521087  RH  018%=      5-min Rain = 0
KDC1 210018Z 22004KT 15/M09 A3011 RMK A01 T01511087  RH  018%=      5-min Rain = 0
KDC1 210019Z 22003KT 15/M09 A3011 RMK A01 T01511086  RH  019%=      5-min Rain = 0
KDC1 210020Z 24003KT 15/M09 A3011 RMK A01 T01501086  RH  019%=      5-min Rain = 0
KDC1 210021Z 22003KT 15/M08 A3011 RMK A01 T01491084  RH  019%=      5-min Rain = 0
KDC1 210022Z 23003KT 15/M09 A3011 RMK A01 T01481085  RH  019%=      5-min Rain = 0
KDC1 210023Z 22003KT 15/M09 A3011 RMK A01 T01471086  RH  019%=      5-min Rain = 0
KDC1 210024Z 23003KT 15/M09 A3011 RMK A01 T01471086  RH  019%=      5-min Rain = 0
KDC1 210025Z 23002KT 15/M09 A3011 RMK A01 T01461087  RH  019%=      5-min Rain = 0
KDC1 210026Z 22002KT 15/M09 A3011 RMK A01 T01451086  RH  019%=      5-min Rain = 0
KDC1 210027Z 23002KT 14/M09 A3011 RMK A01 T01441087  RH  019%=      5-min Rain = 0
KDC1 210028Z 22003KT 14/M09 A3011 RMK A01 T01431088  RH  019%=      5-min Rain = 0
KDC1 210029Z 21003KT 14/M09 A3011 RMK A01 T01431091  RH  019%=      5-min Rain = 0
KDC1 210030Z 21003KT 14/M09 A3011 RMK A01 T01431089  RH  019%=      5-min Rain = 0
KDC1 210031Z 21003KT 14/M09 A3011 RMK A01 T01431089  RH  019%=      5-min Rain = 0
KDC1 210032Z 20003KT 14/M09 A3011 RMK A01 T01421088  RH  019%=      5-min Rain = 0
KDC1 210033Z 20003KT 14/M09 A3011 RMK A01 T01411089  RH  020%=      5-min Rain = 0
KDC1 210034Z 20003KT 14/M09 A3011 RMK A01 T01401088  RH  020%=      5-min Rain = 0
KDC1 210035Z 20002KT 14/M09 A3011 RMK A01 T01391090  RH  019%=      5-min Rain = 0
KDC1 210036Z 19002KT 14/M09 A3011 RMK A01 T01381087  RH  020%=      5-min Rain = 0
KDC1 210037Z 19003KT 14/M09 A3011 RMK A01 T01371088  RH  020%=      5-min Rain = 0
KDC1 210038Z 19003KT 14/M09 A3011 RMK A01 T01361086  RH  021%=      5-min Rain = 0
KDC1 210039Z 18002KT 13/M08 A3011 RMK A01 T01331083  RH  021%=      5-min Rain = 0
KDC1 210040Z 20002KT 13/M08 A301 RMK A01 T01301080  RH  022%=      5-min Rain = 0
KDC1 210041Z 19002KT 13/M08 A301 RMK A01 T01271082  RH  023%=      5-min Rain = 0
KDC1 210042Z 20002KT 13/M08 A301 RMK A01 T01261080  RH  023%=      5-min Rain = 0
KDC1 210043Z 21002KT 12/M07 A301 RMK A01 T01221074  RH  025%=      5-min Rain = 0
KDC1 210044Z 22002KT 12/M08 A301 RMK A01 T01201080  RH  024%=      5-min Rain = 0
KDC1 210045Z 21002KT 12/M09 A301 RMK A01 T01201085  RH  023%=      5-min Rain = 0
KDC1 210046Z 22002KT 12/M08 A301 RMK A01 T01191082  RH  024%=      5-min Rain = 0
KDC1 210047Z 23003KT 12/M09 A301 RMK A01 T01191085  RH  023%=      5-min Rain = 0
KDC1 210048Z 23004KT 12/M09 A301 RMK A01 T01191086  RH  023%=      5-min Rain = 0
KDC1 210049Z 22005KT 12/M09 A301 RMK A01 T01201086  RH  023%=      5-min Rain = 0
KDC1 210050Z 23006KT 12/M09 A301 RMK A01 T01191086  RH  023%=      5-min Rain = 0
KDC1 210051Z 23005KT 12/M09 A301 RMK A01 T01191087  RH  023%=      5-min Rain = 0
KDC1 210052Z 23007KT 12/M09 A301 RMK A01 T01201087  RH  023%=      5-min Rain = 0
KDC1 210053Z 22007KT 12/M09 A301 RMK A01 T01201088  RH  022%=      5-min Rain = 0
KDC1 210054Z 22007KT 12/M09 A301 RMK A01 T01211089  RH  022%=      5-min Rain = 0
KDC1 210055Z 23007KT 12/M09 A301 RMK A01 T01211090  RH  022%=      5-min Rain = 0
KDC1 210056Z 23007KT 12/M09 A301 RMK A01 T01211091  RH  022%=      5-min Rain = 0
KDC1 210057Z 23007KT 12/M09 A301 RMK A01 T01211091  RH  022%=      5-min Rain = 0
KDC1 210058Z 23006KT 12/M09 A301 RMK A01 T01211091  RH  022%=      5-min Rain = 0
KDC1 210059Z 23006KT 12/M09 A301 RMK A01 T01211091  RH  022%=      5-min Rain = 0
KDC1 210100Z 23005KT 12/M09 A301 RMK A01 T01211091  RH  022%=      5-min Rain = 0
KDC1 210101Z 24006KT 12/M09 A301 RMK A01 T01201091  RH  022%=      5-min Rain = 0
KDC1 210102Z 23005KT 12/M09 A301 RMK A01 T01201089  RH  022%=      5-min Rain = 0
KDC1 210103Z 23006KT 12/M09 A301 RMK A01 T01191089  RH  022%=      5-min Rain = 0
KDC1 210104Z 23006KT 12/M09 A301 RMK A01 T01181090  RH  022%=      5-min Rain = 0
KDC1 210105Z 23005KT 12/M09 A301 RMK A01 T01181089  RH  023%=      5-min Rain = 0
KDC1 210106Z 24005KT 12/M09 A301 RMK A01 T01171090  RH  023%=      5-min Rain = 0
KDC1 210107Z 23006KT 12/M09 A301 RMK A01 T01161089  RH  023%=      5-min Rain = 0
KDC1 210108Z 24005KT 12/M09 A301 RMK A01 T01151089  RH  023%=      5-min Rain = 0
KDC1 210109Z 24005KT 12/M09 A301 RMK A01 T01151088  RH  023%=      5-min Rain = 0
KDC1 210110Z 24005KT 11/M09 A301 RMK A01 T01141089  RH  023%=      5-min Rain = 0
KDC1 210111Z 24004KT 11/M09 A301 RMK A01 T01131088  RH  023%=      5-min Rain = 0
KDC1 210112Z 24004KT 11/M09 A301 RMK A01 T01121088  RH  024%=      5-min Rain = 0
KDC1 210113Z 24004KT 11/M09 A301 RMK A01 T01111088  RH  024%=      5-min Rain = 0
KDC1 210114Z 24004KT 11/M09 A301 RMK A01 T01101087  RH  024%=      5-min Rain = 0
KDC1 210115Z 23005KT 11/M09 A301 RMK A01 T01091088  RH  024%=      5-min Rain = 0
KDC1 210116Z 24005KT 11/M09 A301 RMK A01 T01091088  RH  024%=      5-min Rain = 0
KDC1 210117Z 24006KT 11/M09 A301 RMK A01 T01091088  RH  024%=      5-min Rain = 0
KDC1 210118Z 24006KT 11/M09 A301 RMK A01 T01081085  RH  025%=      5-min Rain = 0
KDC1 210119Z 25007KT 11/M08 A301 RMK A01 T01061083  RH  026%=      5-min Rain = 0
KDC1 210120Z 24008KT 11/M08 A301 RMK A01 T01051083  RH  026%=      5-min Rain = 0
KDC1 210121Z 24008KT 11/M09 A301 RMK A01 T01051085  RH  025%=      5-min Rain = 0
KDC1 210122Z 24007KT 11/M08 A301 RMK A01 T01051084  RH  026%=      5-min Rain = 0
KDC1 210123Z 24006KT 11/M08 A301 RMK A01 T01051084  RH  026%=      5-min Rain = 0
KDC1 210124Z 24008KT 11/M09 A301 RMK A01 T01051085  RH  025%=      5-min Rain = 0
KDC1 210125Z 24009KT 10/M09 A301 RMK A01 T01041085  RH  025%=      5-min Rain = 0
KDC1 210126Z 24009KT 10/M09 A301 RMK A01 T01041087  RH  025%=      5-min Rain = 0
KDC1 210127Z 24009KT 10/M09 A301 RMK A01 T01041086  RH  025%=      5-min Rain = 0
KDC1 210128Z 25009KT 10/M09 A301 RMK A01 T01041087  RH  025%=      5-min Rain = 0
KDC1 210129Z 24008KT 10/M09 A301 RMK A01 T01041086  RH  025%=      5-min Rain = 0
KDC1 210130Z 24007KT 10/M09 A301 RMK A01 T01041086  RH  025%=      5-min Rain = 0
KDC1 210131Z 24007KT 10/M09 A301 RMK A01 T01031089  RH  025%=      5-min Rain = 0
KDC1 210132Z 24006KT 10/M09 A301 RMK A01 T01031088  RH  025%=      5-min Rain = 0
KDC1 210133Z 24006KT 10/M09 A301 RMK A01 T01031088  RH  025%=      5-min Rain = 0
KDC1 210134Z 24005KT 10/M09 A301 RMK A01 T01021089  RH  025%=      5-min Rain = 0
KDC1 210135Z 24006KT 10/M09 A301 RMK A01 T01021089  RH  025%=      5-min Rain = 0
KDC1 210136Z 24007KT 10/M09 A301 RMK A01 T01011090  RH  025%=      5-min Rain = 0
KDC1 210137Z 24007KT 10/M09 A301 RMK A01 T01001089  RH  025%=      5-min Rain = 0
KDC1 210138Z 24006KT 10/M09 A301 RMK A01 T00991090  RH  025%=      5-min Rain = 0
KDC1 210139Z 25008KT 10/M09 A301 RMK A01 T00991089  RH  026%=      5-min Rain = 0
KDC1 210140Z 25009KT 10/M09 A301 RMK A01 T00971087  RH  026%=      5-min Rain = 0
KDC1 210141Z 24007KT 10/M09 A301 RMK A01 T00961086  RH  027%=      5-min Rain = 0
KDC1 210142Z 24005KT 09/M08 A301 RMK A01 T00941084  RH  027%=      5-min Rain = 0
KDC1 210143Z 24006KT 09/M08 A301 RMK A01 T00931083  RH  028%=      5-min Rain = 0
KDC1 210144Z 25007KT 09/M08 A301 RMK A01 T00901079  RH  029%=      5-min Rain = 0
KDC1 210145Z 25007KT 09/M08 A301 RMK A01 T00871078  RH  030%=      5-min Rain = 0
KDC1 210146Z 25007KT 09/M08 A301 RMK A01 T00851078  RH  031%=      5-min Rain = 0
KDC1 210147Z 25005KT 08/M08 A301 RMK A01 T00841076  RH  031%=      5-min Rain = 0
KDC1 210148Z 25005KT 08/M07 A301 RMK A01 T00831074  RH  032%=      5-min Rain = 0
KDC1 210149Z 24005KT 08/M07 A301 RMK A01 T00811073  RH  033%=      5-min Rain = 0
KDC1 210150Z 24004KT 08/M07 A301 RMK A01 T00801071  RH  034%=      5-min Rain = 0
KDC1 210151Z 25006KT 08/M07 A301 RMK A01 T00781071  RH  034%=      5-min Rain = 0
KDC1 210152Z 25005KT 08/M07 A301 RMK A01 T00761071  RH  034%=      5-min Rain = 0
KDC1 210153Z 25006KT 08/M07 A301 RMK A01 T00761072  RH  034%=      5-min Rain = 0
KDC1 210154Z 25006KT 08/M07 A301 RMK A01 T00761074  RH  034%=      5-min Rain = 0
KDC1 210155Z 25004KT 08/M07 A301 RMK A01 T00771072  RH  034%=      5-min Rain = 0
KDC1 210156Z 25005KT 08/M07 A301 RMK A01 T00761071  RH  034%=      5-min Rain = 0
KDC1 210157Z 25005KT 08/M07 A301 RMK A01 T00751071  RH  035%=      5-min Rain = 0
KDC1 210158Z 25004KT 07/M07 A301 RMK A01 T00741072  RH  035%=      5-min Rain = 0
KDC1 210159Z 26005KT 07/M07 A301 RMK A01 T00741071  RH  035%=      5-min Rain = 0
KDC1 210200Z 25005KT 07/M07 A301 RMK A01 T00731071  RH  035%=      5-min Rain = 0
KDC1 210201Z 25004KT 07/M07 A301 RMK A01 T00731068  RH  036%=      5-min Rain = 0
KDC1 210202Z 25005KT 07/M07 A301 RMK A01 T00721068  RH  036%=      5-min Rain = 0
KDC1 210203Z 25005KT 07/M07 A301 RMK A01 T00711070  RH  036%=      5-min Rain = 0
KDC1 210204Z 26005KT 07/M07 A301 RMK A01 T00711074  RH  035%=      5-min Rain = 0
KDC1 210205Z 25005KT 07/M07 A301 RMK A01 T00711074  RH  035%=      5-min Rain = 0
KDC1 210206Z 26005KT 07/M07 A301 RMK A01 T00721073  RH  035%=      5-min Rain = 0
KDC1 210207Z 26006KT 07/M07 A301 RMK A01 T00701070  RH  036%=      5-min Rain = 0
KDC1 210208Z 27006KT 07/M07 A301 RMK A01 T00671071  RH  037%=      5-min Rain = 0
KDC1 210209Z 27007KT 07/M07 A301 RMK A01 T00651073  RH  037%=      5-min Rain = 0
KDC1 210210Z 27006KT 06/M07 A301 RMK A01 T00641074  RH  037%=      5-min Rain = 0
KDC1 210211Z 27005KT 06/M08 A301 RMK A01 T00631075  RH  037%=      5-min Rain = 0
KDC1 210212Z 26005KT 06/M08 A301 RMK A01 T00631076  RH  036%=      5-min Rain = 0
KDC1 210213Z 27005KT 07/M08 A301 RMK A01 T00651078  RH  035%=      5-min Rain = 0
KDC1 210214Z 27006KT 07/M08 A301 RMK A01 T00661079  RH  035%=      5-min Rain = 0
KDC1 210215Z 27006KT 07/M08 A301 RMK A01 T00661079  RH  035%=      5-min Rain = 0
KDC1 210216Z 27006KT 06/M08 A301 RMK A01 T00641079  RH  035%=      5-min Rain = 0
KDC1 210217Z 27006KT 06/M08 A301 RMK A01 T00621078  RH  036%=      5-min Rain = 0
KDC1 210218Z 27006KT 06/M08 A301 RMK A01 T00601077  RH  037%=      5-min Rain = 0
KDC1 210219Z 27007KT 06/M08 A301 RMK A01 T00571077  RH  037%=      5-min Rain = 0
KDC1 210220Z 27007KT 06/M08 A301 RMK A01 T00561077  RH  038%=      5-min Rain = 0
KDC1 210221Z 27006KT 05/M08 A301 RMK A01 T00541077  RH  038%=      5-min Rain = 0
KDC1 210222Z 28007KT 05/M08 A301 RMK A01 T00541076  RH  039%=      5-min Rain = 0
KDC1 210223Z 28007KT 05/M08 A301 RMK A01 T00531076  RH  039%=      5-min Rain = 0
KDC1 210224Z 28007KT 05/M08 A301 RMK A01 T00531076  RH  039%=      5-min Rain = 0
KDC1 210225Z 27007KT 05/M08 A301 RMK A01 T00521076  RH  039%=      5-min Rain = 0
KDC1 210226Z 27007KT 05/M08 A301 RMK A01 T00521077  RH  039%=      5-min Rain = 0
KDC1 210227Z 27007KT 05/M08 A301 RMK A01 T00511078  RH  039%=      5-min Rain = 0
KDC1 210228Z 27007KT 05/M08 A301 RMK A01 T00521078  RH  038%=      5-min Rain = 0
KDC1 210229Z 27007KT 05/M08 A301 RMK A01 T00531079  RH  038%=      5-min Rain = 0
KDC1 210230Z 26006KT 06/M08 A301 RMK A01 T00551081  RH  037%=      5-min Rain = 0
KDC1 210231Z 26006KT 06/M08 A301 RMK A01 T00571082  RH  036%=      5-min Rain = 0
KDC1 210232Z 27006KT 06/M08 A301 RMK A01 T00591084  RH  035%=      5-min Rain = 0
KDC1 210233Z 27006KT 06/M08 A301 RMK A01 T00601084  RH  035%=      5-min Rain = 0
KDC1 210234Z 28006KT 06/M08 A301 RMK A01 T00591084  RH  035%=      5-min Rain = 0
KDC1 210235Z 28005KT 06/M08 A301 RMK A01 T00591084  RH  035%=      5-min Rain = 0
KDC1 210236Z 28006KT 06/M08 A301 RMK A01 T00581084  RH  035%=      5-min Rain = 0
KDC1 210237Z 28006KT 06/M08 A301 RMK A01 T00571084  RH  035%=      5-min Rain = 0
KDC1 210238Z 28006KT 06/M08 A301 RMK A01 T00571084  RH  035%=      5-min Rain = 0
KDC1 210239Z 28005KT 06/M09 A301 RMK A01 T00571085  RH  035%=      5-min Rain = 0
KDC1 210240Z 28005KT 06/M09 A301 RMK A01 T00571086  RH  035%=      5-min Rain = 0
KDC1 210241Z 28005KT 06/M09 A301 RMK A01 T00581086  RH  035%=      5-min Rain = 0
KDC1 210242Z 28006KT 06/M09 A301 RMK A01 T00571085  RH  035%=      5-min Rain = 0
KDC1 210243Z 28006KT 06/M09 A301 RMK A01 T00561086  RH  035%=      5-min Rain = 0
KDC1 210244Z 28006KT 06/M09 A301 RMK A01 T00551087  RH  035%=      5-min Rain = 0
KDC1 210245Z 28006KT 06/M09 A301 RMK A01 T00551087  RH  035%=      5-min Rain = 0
KDC1 210246Z 28006KT 05/M09 A301 RMK A01 T00541088  RH  035%=      5-min Rain = 0
KDC1 210247Z 28006KT 06/M09 A301 RMK A01 T00551088  RH  035%=      5-min Rain = 0
KDC1 210248Z 28007KT 06/M09 A301 RMK A01 T00551088  RH  035%=      5-min Rain = 0
KDC1 210249Z 28007KT 05/M09 A301 RMK A01 T00541088  RH  035%=      5-min Rain = 0
KDC1 210250Z 29006KT 05/M09 A3011 RMK A01 T00541086  RH  036%=      5-min Rain = 0
KDC1 210251Z 29007KT 05/M09 A3011 RMK A01 T00531086  RH  036%=      5-min Rain = 0
KDC1 210252Z 29007KT 05/M09 A3011 RMK A01 T00521087  RH  036%=      5-min Rain = 0
KDC1 210253Z 29007KT 05/M09 A3011 RMK A01 T00531088  RH  035%=      5-min Rain = 0
KDC1 210254Z 29008KT 05/M09 A3011 RMK A01 T00541089  RH  035%=      5-min Rain = 0
KDC1 210255Z 29008KT 05/M09 A3011 RMK A01 T00541088  RH  035%=      5-min Rain = 0
KDC1 210256Z 29008KT 05/M09 A3011 RMK A01 T00531088  RH  035%=      5-min Rain = 0
KDC1 210257Z 29008KT 05/M09 A3011 RMK A01 T00521087  RH  036%=      5-min Rain = 0
KDC1 210258Z 29008KT 05/M09 A3011 RMK A01 T00511085  RH  037%=      5-min Rain = 0
KDC1 210259Z 29007KT 05/M09 A3011 RMK A01 T00501085  RH  037%=      5-min Rain = 0
KDC1 210300Z 29008KT 05/M09 A3011 RMK A01 T00491086  RH  037%=      5-min Rain = 0
KDC1 210301Z 29008KT 05/M09 A3011 RMK A01 T00491087  RH  037%=      5-min Rain = 0
KDC1 210302Z 29008KT 05/M09 A3011 RMK A01 T00491086  RH  037%=      5-min Rain = 0
KDC1 210303Z 29008KT 05/M09 A3011 RMK A01 T00521086  RH  036%=      5-min Rain = 0
KDC1 210304Z 29008KT 06/M09 A3011 RMK A01 T00551087  RH  035%=      5-min Rain = 0
KDC1 210305Z 29008KT 06/M09 A3011 RMK A01 T00571087  RH  035%=      5-min Rain = 0
KDC1 210306Z 29008KT 06/M09 A3011 RMK A01 T00581086  RH  035%=      5-min Rain = 0
KDC1 210307Z 29008KT 06/M09 A3011 RMK A01 T00581086  RH  035%=      5-min Rain = 0
KDC1 210308Z 29008KT 06/M09 A3011 RMK A01 T00581086  RH  035%=      5-min Rain = 0
KDC1 210309Z 29008KT 06/M09 A3011 RMK A01 T00571087  RH  035%=      5-min Rain = 0
KDC1 210310Z 29008KT 06/M09 A3011 RMK A01 T00581088  RH  034%=      5-min Rain = 0
KDC1 210311Z 29008KT 06/M09 A301 RMK A01 T00581089  RH  034%=      5-min Rain = 0
KDC1 210312Z 29008KT 06/M09 A301 RMK A01 T00581089  RH  034%=      5-min Rain = 0
KDC1 210313Z 29008KT 06/M09 A3011 RMK A01 T00581089  RH  034%=      5-min Rain = 0
KDC1 210314Z 29007KT 06/M09 A3011 RMK A01 T00591090  RH  033%=      5-min Rain = 0
KDC1 210315Z 29007KT 06/M09 A3011 RMK A01 T00601091  RH  033%=      5-min Rain = 0
KDC1 210316Z 28006KT 06/M09 A3011 RMK A01 T00611091  RH  033%=      5-min Rain = 0
KDC1 210317Z 28006KT 06/M09 A3011 RMK A01 T00611090  RH  033%=      5-min Rain = 0
KDC1 210318Z 28006KT 06/M09 A3011 RMK A01 T00601089  RH  033%=      5-min Rain = 0
KDC1 210319Z 28006KT 06/M09 A3011 RMK A01 T00591090  RH  034%=      5-min Rain = 0
KDC1 210320Z 28007KT 06/M09 A3011 RMK A01 T00581089  RH  034%=      5-min Rain = 0
KDC1 210321Z 28008KT 06/M09 A3011 RMK A01 T00571091  RH  034%=      5-min Rain = 0
KDC1 210322Z 28009KT 06/M09 A3011 RMK A01 T00591093  RH  033%=      5-min Rain = 0
KDC1 210323Z 29009KT 06/M09 A3011 RMK A01 T00631094  RH  032%=      5-min Rain = 0
KDC1 210324Z 29010KT 07/M10 A3011 RMK A01 T00661095  RH  031%=      5-min Rain = 0
KDC1 210325Z 29010KT 07/M10 A3011 RMK A01 T00691096  RH  030%=      5-min Rain = 0
KDC1 210326Z 29009KT 07/M10 A3011 RMK A01 T00721097  RH  029%=      5-min Rain = 0
KDC1 210327Z 29009KT 07/M10 A3011 RMK A01 T00731097  RH  029%=      5-min Rain = 0
KDC1 210328Z 29009KT 07/M10 A3011 RMK A01 T00731096  RH  029%=      5-min Rain = 0
KDC1 210329Z 29009KT 07/M10 A3011 RMK A01 T00721095  RH  029%=      5-min Rain = 0
KDC1 210330Z 29008KT 07/M09 A3011 RMK A01 T00711094  RH  030%=      5-min Rain = 0
KDC1 210331Z 30007KT 07/M09 A3011 RMK A01 T00691093  RH  030%=      5-min Rain = 0
KDC1 210332Z 30007KT 07/M09 A3011 RMK A01 T00681092  RH  031%=      5-min Rain = 0
KDC1 210333Z 30007KT 07/M09 A3011 RMK A01 T00661091  RH  032%=      5-min Rain = 0
KDC1 210334Z 30007KT 07/M09 A3011 RMK A01 T00651090  RH  032%=      5-min Rain = 0
KDC1 210335Z 31006KT 06/M09 A3011 RMK A01 T00641088  RH  033%=      5-min Rain = 0
KDC1 210336Z 31006KT 06/M09 A3011 RMK A01 T00631086  RH  034%=      5-min Rain = 0
KDC1 210337Z 31006KT 06/M09 A3011 RMK A01 T00621085  RH  034%=      5-min Rain = 0
KDC1 210338Z 31006KT 06/M08 A3011 RMK A01 T00611084  RH  035%=      5-min Rain = 0
KDC1 210339Z 31005KT 06/M08 A3011 RMK A01 T00591084  RH  035%=      5-min Rain = 0
KDC1 210340Z 31004KT 06/M08 A3011 RMK A01 T00591083  RH  035%=      5-min Rain = 0
KDC1 210341Z 32003KT 06/M08 A3011 RMK A01 T00581083  RH  035%=      5-min Rain = 0
KDC1 210342Z 32003KT 06/M08 A3011 RMK A01 T00581083  RH  036%=      5-min Rain = 0
KDC1 210343Z 32002KT 06/M08 A3011 RMK A01 T00581083  RH  036%=      5-min Rain = 0
KDC1 210344Z 33002KT 06/M08 A3011 RMK A01 T00581083  RH  035%=      5-min Rain = 0
KDC1 210345Z 35002KT 06/M08 A3011 RMK A01 T00591083  RH  035%=      5-min Rain = 0
KDC1 210346Z 03002KT 06/M08 A3011 RMK A01 T00601082  RH  035%=      5-min Rain = 0
KDC1 210347Z 05003KT 06/M08 A3011 RMK A01 T00601082  RH  035%=      5-min Rain = 0
KDC1 210348Z 08005KT 06/M08 A3011 RMK A01 T00601081  RH  036%=      5-min Rain = 0
KDC1 210349Z 07004KT 06/M08 A3011 RMK A01 T00571078  RH  037%=      5-min Rain = 0
KDC1 210350Z 08003KT 06/M08 A3011 RMK A01 T00551080  RH  037%=      5-min Rain = 0
KDC1 210351Z 09003KT 05/M08 A3011 RMK A01 T00541083  RH  036%=      5-min Rain = 0
KDC1 210352Z 09001KT 06/M09 A3011 RMK A01 T00551085  RH  036%=      5-min Rain = 0
KDC1 210353Z 00000KT 06/M09 A3011 RMK A01 T00581087  RH  034%=      5-min Rain = 0
KDC1 210354Z 06001KT 06/M09 A3011 RMK A01 T00591088  RH  034%=      5-min Rain = 0
KDC1 210355Z 08001KT 06/M09 A3011 RMK A01 T00621090  RH  033%=      5-min Rain = 0
KDC1 210356Z 08002KT 07/M09 A3011 RMK A01 T00651090  RH  032%=      5-min Rain = 0
KDC1 210357Z 08002KT 07/M09 A3012 RMK A01 T00681091  RH  031%=      5-min Rain = 0
KDC1 210358Z 08002KT 07/M09 A3012 RMK A01 T00701090  RH  031%=      5-min Rain = 0
KDC1 210359Z 06002KT 07/M09 A3012 RMK A01 T00681088  RH  032%=      5-min Rain = 0
KDC1 210400Z 07002KT 07/M09 A3012 RMK A01 T00661086  RH  033%=      5-min Rain = 0
KDC1 210401Z 07003KT 06/M09 A3011 RMK A01 T00641087  RH  033%=      5-min Rain = 0
KDC1 210402Z 07003KT 06/M09 A3011 RMK A01 T00621088  RH  033%=      5-min Rain = 0
KDC1 210403Z 08003KT 06/M09 A3011 RMK A01 T00611088  RH  034%=      5-min Rain = 0
KDC1 210404Z 08003KT 06/M09 A3011 RMK A01 T00601087  RH  034%=      5-min Rain = 0
KDC1 210405Z 07002KT 06/M09 A3011 RMK A01 T00581086  RH  035%=      5-min Rain = 0
KDC1 210406Z 06002KT 06/M09 A3011 RMK A01 T00581086  RH  035%=      5-min Rain = 0
KDC1 210407Z 03002KT 06/M09 A3011 RMK A01 T00571086  RH  035%=      5-min Rain = 0
KDC1 210408Z 04002KT 06/M09 A3011 RMK A01 T00571086  RH  035%=      5-min Rain = 0
KDC1 210409Z 04001KT 06/M09 A3011 RMK A01 T00571087  RH  035%=      5-min Rain = 0
KDC1 210410Z 08002KT 06/M09 A3012 RMK A01 T00571086  RH  035%=      5-min Rain = 0
KDC1 210411Z 10002KT 06/M09 A3012 RMK A01 T00561086  RH  035%=      5-min Rain = 0
KDC1 210412Z 12003KT 06/M09 A3012 RMK A01 T00551087  RH  035%=      5-min Rain = 0
KDC1 210413Z 12003KT 06/M08 A3012 RMK A01 T00551082  RH  037%=      5-min Rain = 0
KDC1 210414Z 13004KT 05/M08 A3012 RMK A01 T00521082  RH  037%=      5-min Rain = 0
KDC1 210415Z 13004KT 05/M08 A3012 RMK A01 T00511082  RH  038%=      5-min Rain = 0
KDC1 210416Z 13003KT 05/M08 A3012 RMK A01 T00501083  RH  038%=      5-min Rain = 0
KDC1 210417Z 13003KT 05/M08 A3012 RMK A01 T00501084  RH  037%=      5-min Rain = 0
KDC1 210418Z 12003KT 05/M09 A3011 RMK A01 T00511085  RH  037%=      5-min Rain = 0
KDC1 210419Z 13003KT 05/M09 A3011 RMK A01 T00521086  RH  036%=      5-min Rain = 0
KDC1 210420Z 13003KT 05/M09 A3011 RMK A01 T00541088  RH  035%=      5-min Rain = 0
KDC1 210421Z 13003KT 06/M09 A3011 RMK A01 T00551089  RH  035%=      5-min Rain = 0
KDC1 210422Z 12003KT 06/M09 A3011 RMK A01 T00561089  RH  034%=      5-min Rain = 0
KDC1 210423Z 12002KT 06/M09 A3011 RMK A01 T00561089  RH  034%=      5-min Rain = 0
KDC1 210424Z 12002KT 06/M09 A3012 RMK A01 T00561088  RH  035%=      5-min Rain = 0
KDC1 210425Z 13003KT 06/M09 A3012 RMK A01 T00561090  RH  034%=      5-min Rain = 0
KDC1 210426Z 13002KT 06/M09 A3012 RMK A01 T00561090  RH  034%=      5-min Rain = 0
KDC1 210427Z 13002KT 06/M09 A3011 RMK A01 T00561087  RH  035%=      5-min Rain = 0
KDC1 210428Z 12001KT 05/M09 A3011 RMK A01 T00541086  RH  036%=      5-min Rain = 0
KDC1 210429Z 12002KT 05/M09 A3011 RMK A01 T00531088  RH  035%=      5-min Rain = 0
KDC1 210430Z 11001KT 05/M09 A3011 RMK A01 T00521089  RH  035%=      5-min Rain = 0
KDC1 210431Z 12001KT 05/M09 A3011 RMK A01 T00521089  RH  035%=      5-min Rain = 0
KDC1 210432Z 12001KT 05/M09 A3011 RMK A01 T00521089  RH  035%=      5-min Rain = 0
KDC1 210433Z 13001KT 05/M08 A3011 RMK A01 T00501083  RH  037%=      5-min Rain = 0
KDC1 210434Z 14001KT 05/M08 A3011 RMK A01 T00461080  RH  039%=      5-min Rain = 0
KDC1 210435Z 14001KT 05/M08 A3011 RMK A01 T00461084  RH  038%=      5-min Rain = 0
KDC1 210436Z 00000KT 05/M08 A3011 RMK A01 T00461079  RH  040%=      5-min Rain = 0
KDC1 210437Z 00000KT 04/M08 A3011 RMK A01 T00411078  RH  042%=      5-min Rain = 0
KDC1 210438Z 30000KT 04/M08 A3011 RMK A01 T00361077  RH  043%=      5-min Rain = 0
KDC1 210439Z 29001KT 03/M08 A3011 RMK A01 T00331076  RH  044%=      5-min Rain = 0
KDC1 210440Z 28002KT 03/M08 A3011 RMK A01 T00301076  RH  046%=      5-min Rain = 0
KDC1 210441Z 28003KT 03/M08 A3011 RMK A01 T00281075  RH  046%=      5-min Rain = 0
KDC1 210442Z 27003KT 03/M08 A3011 RMK A01 T00261075  RH  047%=      5-min Rain = 0
KDC1 210443Z 27003KT 02/M08 A3011 RMK A01 T00241076  RH  048%=      5-min Rain = 0
KDC1 210444Z 27003KT 02/M08 A3011 RMK A01 T00241077  RH  047%=      5-min Rain = 0
KDC1 210445Z 28003KT 03/M08 A3011 RMK A01 T00261080  RH  046%=      5-min Rain = 0
KDC1 210446Z 29003KT 03/M08 A3011 RMK A01 T00281082  RH  044%=      5-min Rain = 0
KDC1 210447Z 30003KT 03/M08 A3011 RMK A01 T00321084  RH  042%=      5-min Rain = 0
KDC1 210448Z 31004KT 04/M09 A3011 RMK A01 T00351085  RH  041%=      5-min Rain = 0
KDC1 210449Z 32003KT 04/M09 A3011 RMK A01 T00371085  RH  040%=      5-min Rain = 0
KDC1 210450Z 33004KT 04/M08 A3011 RMK A01 T00391083  RH  040%=      5-min Rain = 0
KDC1 210451Z 33004KT 04/M08 A3011 RMK A01 T00401084  RH  040%=      5-min Rain = 0
KDC1 210452Z 32004KT 04/M08 A3011 RMK A01 T00401084  RH  040%=      5-min Rain = 0
KDC1 210453Z 33004KT 04/M08 A3011 RMK A01 T00391083  RH  041%=      5-min Rain = 0
KDC1 210454Z 32004KT 04/M08 A3011 RMK A01 T00381081  RH  041%=      5-min Rain = 0
KDC1 210455Z 32005KT 04/M08 A3011 RMK A01 T00371080  RH  042%=      5-min Rain = 0
KDC1 210456Z 32004KT 04/M08 A3011 RMK A01 T00371078  RH  043%=      5-min Rain = 0
KDC1 210457Z 33004KT 04/M08 A3011 RMK A01 T00381078  RH  042%=      5-min Rain = 0
KDC1 210458Z 32004KT 04/M08 A3011 RMK A01 T00381079  RH  042%=      5-min Rain = 0
KDC1 210459Z 32003KT 04/M08 A3011 RMK A01 T00381077  RH  043%=      5-min Rain = 0
KDC1 210500Z 32003KT 04/M08 A3011 RMK A01 T00381076  RH  043%=      5-min Rain = 0
KDC1 210501Z 31003KT 04/M08 A3011 RMK A01 T00381076  RH  043%=      5-min Rain = 0
KDC1 210502Z 31003KT 04/M08 A3011 RMK A01 T00391075  RH  043%=      5-min Rain = 0
KDC1 210503Z 31003KT 04/M08 A3011 RMK A01 T00401075  RH  043%=      5-min Rain = 0
KDC1 210504Z 31004KT 04/M08 A3011 RMK A01 T00411075  RH  043%=      5-min Rain = 0
KDC1 210505Z 30004KT 04/M08 A3011 RMK A01 T00421077  RH  042%=      5-min Rain = 0
KDC1 210506Z 31003KT 04/M08 A3011 RMK A01 T00431078  RH  041%=      5-min Rain = 0
KDC1 210507Z 30004KT 04/M08 A3011 RMK A01 T00431078  RH  041%=      5-min Rain = 0
KDC1 210508Z 30003KT 04/M08 A3011 RMK A01 T00431078  RH  041%=      5-min Rain = 0
KDC1 210509Z 32004KT 04/M08 A3011 RMK A01 T00411078  RH  042%=      5-min Rain = 0
KDC1 210510Z 31005KT 04/M08 A3011 RMK A01 T00391078  RH  042%=      5-min Rain = 0
KDC1 210511Z 29005KT 04/M08 A3011 RMK A01 T00381078  RH  043%=      5-min Rain = 0
KDC1 210512Z 29005KT 04/M08 A3011 RMK A01 T00351078  RH  044%=      5-min Rain = 0
KDC1 210513Z 30006KT 03/M08 A3011 RMK A01 T00321077  RH  045%=      5-min Rain = 0
KDC1 210514Z 31005KT 03/M08 A3011 RMK A01 T00291078  RH  045%=      5-min Rain = 0
KDC1 210515Z 31005KT 03/M08 A3011 RMK A01 T00281078  RH  046%=      5-min Rain = 0
KDC1 210516Z 30005KT 03/M08 A3011 RMK A01 T00271078  RH  046%=      5-min Rain = 0
KDC1 210517Z 30006KT 03/M08 A3011 RMK A01 T00261077  RH  046%=      5-min Rain = 0
KDC1 210518Z 31008KT 03/M08 A3011 RMK A01 T00261077  RH  046%=      5-min Rain = 0
KDC1 210519Z 31007KT 03/M08 A3011 RMK A01 T00271077  RH  046%=      5-min Rain = 0
KDC1 210520Z 31007KT 03/M08 A3011 RMK A01 T00251077  RH  047%=      5-min Rain = 0
KDC1 210521Z 32006KT 02/M08 A3011 RMK A01 T00231078  RH  047%=      5-min Rain = 0
KDC1 210522Z 31006KT 02/M08 A3011 RMK A01 T00231077  RH  048%=      5-min Rain = 0
KDC1 210523Z 30006KT 02/M08 A3011 RMK A01 T00241077  RH  047%=      5-min Rain = 0
KDC1 210524Z 30006KT 02/M08 A3011 RMK A01 T00241077  RH  047%=      5-min Rain = 0
KDC1 210525Z 29006KT 03/M08 A3011 RMK A01 T00251077  RH  047%=      5-min Rain = 0
KDC1 210526Z 30006KT 03/M08 A3011 RMK A01 T00271077  RH  046%=      5-min Rain = 0
KDC1 210527Z 30007KT 03/M08 A3011 RMK A01 T00281077  RH  046%=      5-min Rain = 0
KDC1 210528Z 29007KT 03/M08 A3011 RMK A01 T00261078  RH  046%=      5-min Rain = 0
KDC1 210529Z 29007KT 02/M08 A3011 RMK A01 T00241078  RH  047%=      5-min Rain = 0
KDC1 210530Z 28007KT 02/M08 A3011 RMK A01 T00231078  RH  047%=      5-min Rain = 0
KDC1 210531Z 28007KT 02/M08 A3011 RMK A01 T00241077  RH  047%=      5-min Rain = 0
KDC1 210532Z 28008KT 02/M08 A3011 RMK A01 T00241077  RH  047%=      5-min Rain = 0
KDC1 210533Z 28008KT 02/M08 A3011 RMK A01 T00231078  RH  047%=      5-min Rain = 0
KDC1 210534Z 28008KT 02/M08 A3011 RMK A01 T00231079  RH  047%=      5-min Rain = 0
KDC1 210535Z 28008KT 02/M08 A3011 RMK A01 T00231080  RH  046%=      5-min Rain = 0
KDC1 210536Z 29009KT 02/M08 A3011 RMK A01 T00231082  RH  046%=      5-min Rain = 0
KDC1 210537Z 29009KT 02/M08 A3011 RMK A01 T00231083  RH  045%=      5-min Rain = 0
KDC1 210538Z 29009KT 02/M08 A3011 RMK A01 T00231084  RH  045%=      5-min Rain = 0
KDC1 210539Z 29009KT 02/M09 A3011 RMK A01 T00231085  RH  045%=      5-min Rain = 0
KDC1 210540Z 29009KT 02/M09 A3011 RMK A01 T00241085  RH  044%=      5-min Rain = 0
KDC1 210541Z 29009KT 03/M09 A3011 RMK A01 T00251086  RH  044%=      5-min Rain = 0
KDC1 210542Z 29009KT 03/M09 A3011 RMK A01 T00261087  RH  043%=      5-min Rain = 0
KDC1 210543Z 29009KT 03/M09 A3011 RMK A01 T00271088  RH  043%=      5-min Rain = 0
KDC1 210544Z 29008KT 03/M09 A3011 RMK A01 T00271088  RH  042%=      5-min Rain = 0
KDC1 210545Z 29008KT 03/M09 A3011 RMK A01 T00281088  RH  042%=      5-min Rain = 0
KDC1 210546Z 28007KT 03/M09 A3011 RMK A01 T00261088  RH  043%=      5-min Rain = 0
KDC1 210547Z 29008KT 03/M09 A3011 RMK A01 T00261088  RH  043%=      5-min Rain = 0
KDC1 210548Z 29008KT 03/M09 A3011 RMK A01 T00251089  RH  043%=      5-min Rain = 0
KDC1 210549Z 29009KT 02/M09 A3011 RMK A01 T00241089  RH  043%=      5-min Rain = 0
KDC1 210550Z 29010KT 02/M09 A301 RMK A01 T00241089  RH  043%=      5-min Rain = 0
KDC1 210551Z 29010KT 02/M09 A301 RMK A01 T00241088  RH  043%=      5-min Rain = 0
KDC1 210552Z 29010KT 02/M09 A301 RMK A01 T00241088  RH  043%=      5-min Rain = 0
KDC1 210553Z 28010KT 03/M09 A301 RMK A01 T00251088  RH  043%=      5-min Rain = 0
KDC1 210554Z 28010KT 03/M09 A301 RMK A01 T00251088  RH  043%=      5-min Rain = 0
KDC1 210555Z 28010KT 03/M09 A301 RMK A01 T00261088  RH  043%=      5-min Rain = 0
KDC1 210556Z 28009KT 03/M09 A301 RMK A01 T00261089  RH  042%=      5-min Rain = 0
KDC1 210557Z 28008KT 03/M09 A301 RMK A01 T00261089  RH  042%=      5-min Rain = 0
KDC1 210558Z 27008KT 03/M09 A301 RMK A01 T00251090  RH  042%=      5-min Rain = 0
KDC1 210559Z 27009KT 03/M09 A301 RMK A01 T00251091  RH  042%=      5-min Rain = 0

Page generated in 0.081 seconds.